M I D A S
Marine Information and Data Acquisition System
Tripno 2285 of the Zeeleeuw from 2012-04-05 06:32:25 to 2012-04-05 14:15:10
Back to CruiseResearch ActivitiesStationsMapUnderway DataData graphs

EquipmentUnitsComment
TimeDGPSUTC
LatitudeDGPSDM.mWGS84
LongitudeDGPSDM.mWGS84
TemperatureSBE03/SBE38deg celciusITS90
ConductivitySBE21S/mITS90
SalinitySBE21 Practical Salinity Units
ChlorophylAChelsea fluorimeterg/lCalibrated in Aceton
Missing or incorrect values are displayed as -999
Sea surface data collected by the RV Zeeleeuw from 2012-04-05 06:34:02 to 2012-04-05 14:26:06
                                                                                    Next 1000 lines
Time Latitude Longitude Temperature Conductivity Salinity ChlorophylA
2012-04-05 06:34:12 51°13.637 2°56.017 15.3314 0.083219 0.427026 -2.458615
2012-04-05 06:34:17 51°13.637 2°56.017 15.3271 0.083219 0.42702 -2.458615
2012-04-05 06:34:22 51°13.637 2°56.017 15.3275 0.083219 0.42702 -2.458615
2012-04-05 06:34:27 51°13.637 2°56.017 15.326 0.083219 0.42702 -2.458615
2012-04-05 06:34:32 51°13.637 2°56.017 15.3268 0.083219 0.42702 -2.458615
2012-04-05 06:34:37 51°13.637 2°56.017 15.3274 0.083219 0.427013 -2.458615
2012-04-05 06:34:42 51°13.637 2°56.017 15.3281 0.083219 0.42702 -2.458615
2012-04-05 06:34:47 51°13.637 2°56.017 15.3282 0.083219 0.427013 -2.458615
2012-04-05 06:34:52 51°13.636 2°56.017 15.3291 0.083219 0.42702 -2.458615
2012-04-05 06:34:57 51°13.636 2°56.017 15.3307 0.083219 0.42702 -2.458615
2012-04-05 06:35:02 51°13.636 2°56.017 15.3314 0.083219 0.42702 -2.458615
2012-04-05 06:35:07 51°13.636 2°56.017 15.3327 0.083219 0.42702 -2.458615
2012-04-05 06:35:12 51°13.636 2°56.017 15.3311 0.083219 0.42702 -2.458615
2012-04-05 06:35:17 51°13.636 2°56.017 15.3302 0.083219 0.42702 -2.458615
2012-04-05 06:35:22 51°13.635 2°56.017 15.3295 0.083219 0.42702 -2.458615
2012-04-05 06:35:27 51°13.635 2°56.017 15.3289 0.083219 0.42702 -2.458615
2012-04-05 06:35:32 51°13.635 2°56.017 15.3261 0.083219 0.42702 -2.458615
2012-04-05 06:35:37 51°13.635 2°56.017 15.3234 0.083219 0.427013 -2.458615
2012-04-05 06:35:42 51°13.635 2°56.017 15.3229 0.083219 0.427013 -2.458615
2012-04-05 06:35:47 51°13.634 2°56.016 15.3218 0.083219 0.427013 -2.458615
2012-04-05 06:35:52 51°13.634 2°56.016 15.3179 0.083219 0.427013 -2.458615
2012-04-05 06:35:57 51°13.634 2°56.016 15.2523 0.083219 0.427013 -2.458615
2012-04-05 06:36:02 51°13.634 2°56.015 15.2271 0.083219 0.427013 -2.458615
2012-04-05 06:36:07 51°13.635 2°56.013 15.2512 0.083219 0.42702 -2.458615
2012-04-05 06:36:12 51°13.635 2°56.009 15.1853 0.083219 0.42702 -2.458615
2012-04-05 06:36:17 51°13.636 2°56.004 15.3132 0.083219 0.42702 -2.458615
2012-04-05 06:36:22 51°13.637 2°55.999 15.2958 0.083219 0.42702 -2.458615
2012-04-05 06:36:27 51°13.638 2°55.992 15.2773 0.083219 0.42702 -2.458615
2012-04-05 06:36:32 51°13.639 2°55.985 15.3276 0.083219 0.42702 -2.458615
2012-04-05 06:36:37 51°13.64 2°55.977 15.3085 0.083219 0.427013 -2.458615
2012-04-05 06:36:42 51°13.641 2°55.968 15.316 0.083219 0.427013 -2.458615
2012-04-05 06:36:47 51°13.643 2°55.959 15.34 0.083219 0.427013 -2.458615
2012-04-05 06:36:52 51°13.645 2°55.95 15.3523 0.083219 0.427013 -2.458615
2012-04-05 06:36:57 51°13.647 2°55.941 15.3745 0.083219 0.427013 -2.458615
2012-04-05 06:37:02 51°13.649 2°55.932 15.331 0.083219 0.427006 -2.458615
2012-04-05 06:37:07 51°13.651 2°55.923 15.3649 0.083219 0.427006 -2.458615
2012-04-05 06:37:12 51°13.653 2°55.913 15.3481 0.083219 0.427006 -2.458615
2012-04-05 06:37:17 51°13.655 2°55.904 15.351 0.083219 0.427006 -2.458615
2012-04-05 06:37:22 51°13.658 2°55.894 15.3603 0.083219 0.427006 -2.458615
2012-04-05 06:37:27 51°13.66 2°55.885 15.3166 0.083219 0.427006 -2.458615
2012-04-05 06:37:32 51°13.663 2°55.875 15.3336 0.083219 0.427006 -2.458615
2012-04-05 06:37:37 51°13.666 2°55.865 15.3413 0.083219 0.427006 -2.458615
2012-04-05 06:37:42 51°13.67 2°55.856 15.3515 0.083219 0.427006 -2.458615
2012-04-05 06:37:47 51°13.674 2°55.846 15.3744 0.083219 0.427006 -2.458615
2012-04-05 06:37:52 51°13.678 2°55.836 15.3293 0.083219 0.427006 -2.458615
2012-04-05 06:37:57 51°13.682 2°55.827 15.355 0.083219 0.427006 -2.458615
2012-04-05 06:38:02 51°13.686 2°55.818 15.3478 0.083219 0.427006 -2.458615
2012-04-05 06:38:07 51°13.691 2°55.809 15.3458 0.083219 0.426999 -2.458615
2012-04-05 06:38:12 51°13.696 2°55.8 15.3532 0.083219 0.426999 -2.458615
2012-04-05 06:38:17 51°13.701 2°55.791 15.3666 0.083219 0.426999 -2.458615
2012-04-05 06:38:22 51°13.706 2°55.782 15.358 0.083219 0.426999 -2.458615
2012-04-05 06:38:27 51°13.711 2°55.774 15.3152 0.083219 0.426999 -2.458615
2012-04-05 06:38:32 51°13.716 2°55.766 15.3191 0.083219 0.426992 -2.458615
2012-04-05 06:38:37 51°13.721 2°55.757 15.3282 0.083219 0.426999 -2.458615
2012-04-05 06:38:42 51°13.726 2°55.749 15.3165 0.083219 0.426992 -2.458615
2012-04-05 06:38:47 51°13.731 2°55.74 15.3084 0.083322 0.427538 -2.458615
2012-04-05 06:38:52 51°13.737 2°55.731 15.3224 0.083219 0.426999 -2.458615
2012-04-05 06:38:57 51°13.742 2°55.722 15.3289 0.083219 0.426999 -2.458615
2012-04-05 06:39:02 51°13.747 2°55.714 15.3389 0.083219 0.426999 -2.458615
2012-04-05 06:39:07 51°13.753 2°55.706 15.364 0.083219 0.426992 -2.458615
2012-04-05 06:39:12 51°13.759 2°55.698 15.3558 0.083219 0.426999 -2.458615
2012-04-05 06:39:17 51°13.765 2°55.69 15.3272 0.083219 0.426999 -2.458615
2012-04-05 06:39:22 51°13.77 2°55.683 15.3434 0.083219 0.426999 -2.458615
2012-04-05 06:39:27 51°13.776 2°55.675 15.3534 0.083219 0.426999 -2.458615
2012-04-05 06:39:32 51°13.783 2°55.668 15.3439 0.083219 0.426992 -2.458615
2012-04-05 06:39:37 51°13.789 2°55.661 15.3333 0.083219 0.426992 -2.458615
2012-04-05 06:39:42 51°13.795 2°55.654 15.3402 0.083322 0.427538 -2.458615
2012-04-05 06:39:47 51°13.802 2°55.648 15.3419 0.083322 0.427538 -2.458615
2012-04-05 06:39:52 51°13.809 2°55.643 15.3438 0.083219 0.426992 -2.458615
2012-04-05 06:39:57 51°13.816 2°55.638 15.3451 0.083219 0.426992 -2.458615
2012-04-05 06:40:02 51°13.823 2°55.633 15.3451 0.083219 0.426985 -2.458615
2012-04-05 06:40:07 51°13.83 2°55.629 15.3571 0.083322 0.427538 -2.458615
2012-04-05 06:40:12 51°13.837 2°55.625 15.3596 0.083219 0.426992 -2.458615
2012-04-05 06:40:17 51°13.844 2°55.622 15.3547 0.083219 0.426992 -2.458615
2012-04-05 06:40:22 51°13.85 2°55.619 15.3463 0.083219 0.426985 -2.458615
2012-04-05 06:40:27 51°13.857 2°55.616 15.3536 0.083219 0.426985 -2.458615
2012-04-05 06:40:32 51°13.864 2°55.613 15.3347 0.083219 0.426992 -2.458615
2012-04-05 06:40:37 51°13.87 2°55.611 15.3765 0.083219 0.426992 -2.458615
2012-04-05 06:40:42 51°13.877 2°55.609 15.3609 0.083219 0.426992 -2.458615
2012-04-05 06:40:47 51°13.883 2°55.607 15.3673 0.083219 0.426992 -2.458615
2012-04-05 06:40:52 51°13.89 2°55.605 15.342 0.083219 0.426985 -2.458615
2012-04-05 06:40:57 51°13.896 2°55.604 15.35 0.083219 0.426985 -2.458615
2012-04-05 06:41:02 51°13.901 2°55.604 15.3629 0.083219 0.426992 -2.458615
2012-04-05 06:41:07 51°13.907 2°55.603 15.3716 0.083219 0.426992 -2.458615
2012-04-05 06:41:12 51°13.913 2°55.603 15.3672 0.083219 0.426985 -2.458615
2012-04-05 06:41:17 51°13.918 2°55.603 15.3708 0.083219 0.426992 -2.458615
2012-04-05 06:41:22 51°13.923 2°55.604 15.3679 0.083322 0.427538 -2.458615
2012-04-05 06:41:27 51°13.928 2°55.604 15.3693 0.083322 0.427538 -2.458615
2012-04-05 06:41:32 51°13.933 2°55.605 15.3825 0.083219 0.426992 -2.458615
2012-04-05 06:41:37 51°13.938 2°55.606 15.3699 0.083219 0.426992 -2.458615
2012-04-05 06:41:42 51°13.942 2°55.608 15.3477 0.083219 0.426992 -2.458615
2012-04-05 06:41:47 51°13.946 2°55.61 15.3515 0.083219 0.426992 -2.458615
2012-04-05 06:41:52 51°13.95 2°55.613 15.3237 0.083219 0.426992 -2.458615
2012-04-05 06:41:57 51°13.954 2°55.615 15.3505 0.083219 0.426992 -2.458615
2012-04-05 06:42:02 51°13.958 2°55.618 15.3711 0.083219 0.426992 -2.458615
2012-04-05 06:42:07 51°13.962 2°55.621 15.3368 0.083219 0.426992 -2.458615
2012-04-05 06:42:12 51°13.965 2°55.624 15.33 0.083219 0.426992 -2.458615
2012-04-05 06:42:17 51°13.968 2°55.627 15.3661 0.083322 0.427538 -2.458615
2012-04-05 06:42:22 51°13.971 2°55.63 15.3276 0.083219 0.426992 -2.458615
2012-04-05 06:42:27 51°13.974 2°55.633 15.3182 0.083219 0.426992 -2.458615
2012-04-05 06:42:32 51°13.976 2°55.636 15.3486 0.083219 0.426992 -2.458615
2012-04-05 06:42:37 51°13.978 2°55.639 15.3698 0.083219 0.426992 -2.458615
2012-04-05 06:42:42 51°13.98 2°55.64 15.4059 0.083219 0.426985 -2.458615
2012-04-05 06:42:47 51°13.981 2°55.641 15.4061 0.083219 0.426985 -2.458615
2012-04-05 06:42:52 51°13.981 2°55.64 15.3721 0.083219 0.426978 -2.458615
2012-04-05 06:42:57 51°13.981 2°55.639 15.204 0.083219 0.426978 -2.458615
2012-04-05 06:43:02 51°13.982 2°55.637 15.1452 0.083322 0.427531 -2.458615
2012-04-05 06:43:07 51°13.982 2°55.634 15.1744 0.083322 0.427531 -2.458615
2012-04-05 06:43:12 51°13.982 2°55.629 15.0405 0.083219 0.426985 -2.458615
2012-04-05 06:43:17 51°13.983 2°55.625 14.9791 0.083219 0.426992 -2.458615
2012-04-05 06:43:22 51°13.984 2°55.619 15.0416 0.083219 0.426992 -2.458615
2012-04-05 06:43:27 51°13.985 2°55.614 14.9999 0.083219 0.426992 -2.458615
2012-04-05 06:43:32 51°13.988 2°55.607 15.1902 0.083219 0.426999 -2.458615
2012-04-05 06:43:37 51°13.991 2°55.6 15.2545 0.083219 0.426999 -2.458615
2012-04-05 06:43:42 51°13.994 2°55.592 15.272 0.083219 0.427006 -2.458615
2012-04-05 06:43:47 51°13.998 2°55.584 15.2664 0.083219 0.427013 -2.458615
2012-04-05 06:43:52 51°14.003 2°55.575 15.2605 0.083219 0.426999 -2.458615
2012-04-05 06:43:57 51°14.008 2°55.565 15.2272 0.083219 0.426999 -2.458615
2012-04-05 06:44:02 51°14.015 2°55.556 15.1919 0.083219 0.426992 -2.458615
2012-04-05 06:44:07 51°14.021 2°55.545 15.1909 0.083219 0.426985 -2.458615
2012-04-05 06:44:12 51°14.028 2°55.536 15.1998 0.083219 0.426971 -2.458615
2012-04-05 06:44:17 51°14.036 2°55.526 15.1991 0.083219 0.426971 -2.458615
2012-04-05 06:44:22 51°14.044 2°55.516 15.1657 0.083219 0.426978 -2.458615
2012-04-05 06:44:27 51°14.052 2°55.506 15.1995 0.083219 0.426978 -2.458615
2012-04-05 06:44:32 51°14.061 2°55.496 15.2339 0.083219 0.426978 -2.458615
2012-04-05 06:44:37 51°14.07 2°55.486 15.0991 0.083219 0.426985 -2.458615
2012-04-05 06:44:42 51°14.08 2°55.475 15.1335 0.083219 0.426985 -2.458615
2012-04-05 06:44:47 51°14.089 2°55.465 15.2051 0.083219 0.426985 -2.458615
2012-04-05 06:44:52 51°14.099 2°55.455 15.1874 0.083322 0.427538 -2.458615
2012-04-05 06:44:57 51°14.109 2°55.444 15.1267 0.083322 0.427538 -2.458615
2012-04-05 06:45:02 51°14.118 2°55.434 15.0882 0.083219 0.426985 -2.458615
2012-04-05 06:45:07 51°14.129 2°55.424 15.2115 0.083219 0.426978 -2.458615
2012-04-05 06:45:12 51°14.139 2°55.414 15.2221 0.083219 0.426978 -2.458615
2012-04-05 06:45:17 51°14.149 2°55.404 15.1722 0.083219 0.426978 -2.458615
2012-04-05 06:45:22 51°14.16 2°55.393 15.093 0.083219 0.426978 -2.458615
2012-04-05 06:45:27 51°14.17 2°55.383 15.1871 0.083219 0.426978 -2.458615
2012-04-05 06:45:32 51°14.181 2°55.374 15.0783 0.083219 0.426971 -2.458615
2012-04-05 06:45:37 51°14.191 2°55.364 15.1924 0.083219 0.426971 -2.458615
2012-04-05 06:45:42 51°14.202 2°55.353 15.0145 0.083219 0.426971 -2.458615
2012-04-05 06:45:47 51°14.212 2°55.343 15.1166 0.083219 0.426971 -2.458615
2012-04-05 06:45:52 51°14.223 2°55.333 15.134 0.083322 0.427538 -2.458615
2012-04-05 06:45:57 51°14.234 2°55.323 15.1303 0.083322 0.427538 -2.458615
2012-04-05 06:46:02 51°14.245 2°55.313 15.0764 0.083219 0.42702 -2.458615
2012-04-05 06:46:07 51°14.256 2°55.302 15.0867 0.083219 0.427033 -2.458615
2012-04-05 06:46:12 51°14.267 2°55.291 15.1707 0.083219 0.427026 -2.458615
2012-04-05 06:46:17 51°14.278 2°55.279 15.1023 0.083219 0.427006 -2.458615
2012-04-05 06:46:22 51°14.289 2°55.268 15.0142 0.083219 0.426957 -2.458615
2012-04-05 06:46:27 51°14.301 2°55.257 15.0044 0.083219 0.426957 -2.458615
2012-04-05 06:46:32 51°14.312 2°55.246 15.0793 0.083219 0.426916 -2.458615
2012-04-05 06:46:37 51°14.324 2°55.234 15.1245 0.083219 0.426909 -2.458615
2012-04-05 06:46:42 51°14.336 2°55.222 15.0286 0.083219 0.426902 -2.458615
2012-04-05 06:46:47 51°14.348 2°55.211 15.0246 0.083219 0.426909 -2.458615
2012-04-05 06:46:52 51°14.359 2°55.199 15.0142 0.083219 0.426923 -2.458615
2012-04-05 06:46:57 51°14.371 2°55.187 15.1234 0.083219 0.426923 -2.458615
2012-04-05 06:47:02 51°14.382 2°55.175 15.05 0.083322 0.42751 -2.458615
2012-04-05 06:47:07 51°14.394 2°55.162 15.0636 0.083219 0.426978 -2.458615
2012-04-05 06:47:12 51°14.405 2°55.15 14.9062 0.083219 0.426978 -2.458615
2012-04-05 06:47:17 51°14.416 2°55.139 14.951 0.083219 0.426985 -2.458615
2012-04-05 06:47:22 51°14.428 2°55.127 15.0371 0.083219 0.426978 -2.458615
2012-04-05 06:47:27 51°14.44 2°55.115 14.9842 0.083219 0.426978 -2.458615
2012-04-05 06:47:32 51°14.452 2°55.103 14.8928 0.083219 0.426985 -2.458615
2012-04-05 06:47:37 51°14.464 2°55.091 15.0503 0.083219 0.426964 -2.458615
2012-04-05 06:47:42 51°14.476 2°55.079 14.9334 0.083219 0.426943 -2.458615
2012-04-05 06:47:47 51°14.488 2°55.066 14.9988 0.083219 0.42695 -2.458615
2012-04-05 06:47:52 51°14.5 2°55.052 14.9055 0.083219 0.426943 -2.458615
2012-04-05 06:47:57 51°14.512 2°55.038 14.9292 0.083219 0.426943 -2.458615
2012-04-05 06:48:02 51°14.523 2°55.024 15.015 0.083322 0.427496 -2.458615
2012-04-05 06:48:07 51°14.535 2°55.007 14.9268 0.083322 0.42751 -2.458615
2012-04-05 06:48:12 51°14.546 2°54.99 14.9109 0.083219 0.426957 -2.458615
2012-04-05 06:48:17 51°14.557 2°54.973 14.9468 0.083219 0.42695 -2.458615
2012-04-05 06:48:22 51°14.569 2°54.956 14.9377 0.083219 0.42695 -2.458615
2012-04-05 06:48:27 51°14.58 2°54.938 14.9337 0.083219 0.42695 -2.458615
2012-04-05 06:48:32 51°14.592 2°54.921 14.9116 0.083219 0.42695 -2.458615
2012-04-05 06:48:37 51°14.604 2°54.903 14.9247 0.083219 0.426943 -2.458615
2012-04-05 06:48:41 51°14.613 2°54.889 14.9484 0.083322 0.427489 -2.458615
2012-04-05 06:48:47 51°14.627 2°54.867 14.8794 0.083219 0.426943 -2.458615
2012-04-05 06:48:52 51°14.64 2°54.85 14.8925 0.083219 0.426943 -2.458615
2012-04-05 06:48:57 51°14.652 2°54.832 14.8423 0.083219 0.426943 -2.458615
2012-04-05 06:49:01 51°14.661 2°54.818 14.8295 0.083219 0.426943 -2.458615
2012-04-05 06:49:06 51°14.674 2°54.801 14.9392 0.083219 0.426937 -2.458615
2012-04-05 06:49:12 51°14.689 2°54.78 14.8268 0.083219 0.426937 -2.458615
2012-04-05 06:49:17 51°14.702 2°54.763 14.8702 0.083219 0.426937 -2.458615
2012-04-05 06:49:21 51°14.712 2°54.75 14.9207 0.083219 0.42693 -2.458615
2012-04-05 06:49:26 51°14.724 2°54.733 14.8955 0.083219 0.42693 -2.458615
2012-04-05 06:49:32 51°14.74 2°54.713 14.827 0.083219 0.426923 -2.458615
2012-04-05 06:49:37 51°14.753 2°54.696 14.8854 0.083219 0.426923 -2.458615
2012-04-05 06:49:42 51°14.766 2°54.68 14.89 0.083219 0.426916 -2.458615
2012-04-05 06:49:46 51°14.777 2°54.667 14.8169 0.083219 0.426916 -2.458615
2012-04-05 06:49:52 51°14.792 2°54.648 14.8108 0.083219 0.426923 -2.458615
2012-04-05 06:49:57 51°14.805 2°54.632 14.8201 0.083219 0.426923 -2.458615
2012-04-05 06:50:02 51°14.819 2°54.617 14.9224 0.083219 0.426916 -2.458615
2012-04-05 06:50:06 51°14.829 2°54.606 14.8605 0.083219 0.426923 -2.458615
2012-04-05 06:50:12 51°14.845 2°54.589 14.8238 0.083219 0.426923 -2.458615
2012-04-05 06:50:17 51°14.858 2°54.575 14.8138 0.083219 0.42693 -2.458615
2012-04-05 06:50:22 51°14.871 2°54.56 14.8361 0.083219 0.426916 -2.458615
2012-04-05 06:50:26 51°14.881 2°54.547 14.9255 0.083219 0.426916 -2.458615
2012-04-05 06:50:32 51°14.896 2°54.528 14.9066 0.083322 0.427468 -2.458615
2012-04-05 06:50:37 51°14.909 2°54.512 14.8375 0.083219 0.426923 -2.458615
2012-04-05 06:50:41 51°14.919 2°54.499 14.8072 0.083219 0.426923 -2.458615
2012-04-05 06:50:46 51°14.931 2°54.483 14.8682 0.083219 0.42693 -2.458615
2012-04-05 06:50:52 51°14.947 2°54.464 14.8164 0.083219 0.426923 -2.458615
2012-04-05 06:50:57 51°14.96 2°54.449 14.8963 0.083219 0.426923 -2.458615
2012-04-05 06:51:01 51°14.97 2°54.437 14.8639 0.083322 0.427475 -2.458615
2012-04-05 06:51:06 51°14.983 2°54.42 14.8401 0.083219 0.42693 -2.458615
2012-04-05 06:51:12 51°14.997 2°54.401 14.8685 0.083219 0.42693 -2.458615
2012-04-05 06:51:17 51°15.01 2°54.384 14.8087 0.083219 0.42693 -2.458615
2012-04-05 06:51:21 51°15.02 2°54.371 14.8156 0.083219 0.42693 -2.458615
2012-04-05 06:51:26 51°15.033 2°54.355 14.8383 0.083219 0.42693 -2.458615
2012-04-05 06:51:31 51°15.046 2°54.339 14.8186 0.083219 0.426916 -2.458615
2012-04-05 06:51:37 51°15.062 2°54.321 14.8575 0.083219 0.426909 -2.458615
2012-04-05 06:51:41 51°15.072 2°54.309 14.8344 0.083219 0.426916 -2.458615
2012-04-05 06:51:46 51°15.085 2°54.294 14.8816 0.083219 0.42693 -2.458615
2012-04-05 06:51:51 51°15.097 2°54.277 14.8591 0.083219 0.426923 -2.458615
2012-04-05 06:51:57 51°15.112 2°54.257 14.8649 0.083219 0.426923 -2.458615
2012-04-05 06:52:01 51°15.122 2°54.244 14.8623 0.083219 0.426916 -2.458615
2012-04-05 06:52:06 51°15.135 2°54.228 14.8473 0.083219 0.426902 -2.458615
2012-04-05 06:52:11 51°15.148 2°54.212 14.8785 0.083219 0.426916 -2.458615
2012-04-05 06:52:16 51°15.161 2°54.195 14.8378 0.083219 0.426916 -2.458615
2012-04-05 06:52:21 51°15.173 2°54.179 14.87 0.083219 0.426909 -2.458615
2012-04-05 06:52:26 51°15.186 2°54.163 14.8289 0.083219 0.426909 -2.458615
2012-04-05 06:52:31 51°15.199 2°54.147 14.8611 0.083219 0.426923 -2.458615
2012-04-05 06:52:36 51°15.211 2°54.13 14.8334 0.083219 0.426923 -2.458615
2012-04-05 06:52:41 51°15.224 2°54.113 14.8519 0.083219 0.42693 -2.458615
2012-04-05 06:52:46 51°15.237 2°54.096 14.806 0.083219 0.42693 -2.458615
2012-04-05 06:52:51 51°15.249 2°54.079 14.8505 0.083219 0.42693 -2.458615
2012-04-05 06:52:56 51°15.262 2°54.064 14.8716 0.083219 0.42693 -2.458615
2012-04-05 06:53:01 51°15.276 2°54.048 14.8701 0.083219 0.426916 -2.458615
2012-04-05 06:53:06 51°15.288 2°54.032 14.8435 0.083322 0.427475 -2.458615
2012-04-05 06:53:11 51°15.301 2°54.015 14.8502 0.083219 0.42693 -2.458615
2012-04-05 06:53:16 51°15.314 2°53.998 14.821 0.083219 0.42693 -2.458615
2012-04-05 06:53:21 51°15.327 2°53.982 14.8172 0.083219 0.42693 -2.458615
2012-04-05 06:53:26 51°15.34 2°53.966 14.8593 0.083219 0.42693 -2.458615
2012-04-05 06:53:31 51°15.353 2°53.95 14.8381 0.083219 0.426923 -2.458615
2012-04-05 06:53:36 51°15.366 2°53.934 14.8508 0.083322 0.427475 -2.458615
2012-04-05 06:53:41 51°15.379 2°53.918 14.8619 0.083219 0.42693 -2.458615
2012-04-05 06:53:46 51°15.392 2°53.902 14.8445 0.083219 0.42693 -2.458615
2012-04-05 06:53:51 51°15.406 2°53.887 14.8281 0.083219 0.42693 -2.458615
2012-04-05 06:53:56 51°15.419 2°53.871 14.8769 0.083219 0.42693 -2.458615
2012-04-05 06:54:01 51°15.431 2°53.855 14.8606 0.083219 0.42693 -2.458615
2012-04-05 06:54:06 51°15.444 2°53.839 14.8448 0.083219 0.426937 -2.458615
2012-04-05 06:54:11 51°15.457 2°53.823 14.8757 0.083219 0.426937 -2.458615
2012-04-05 06:54:16 51°15.47 2°53.806 14.8307 0.083219 0.42693 -2.458615
2012-04-05 06:54:21 51°15.483 2°53.79 14.8393 0.083219 0.426923 -2.458615
2012-04-05 06:54:26 51°15.496 2°53.775 14.8685 0.083219 0.426923 -2.458615
2012-04-05 06:54:31 51°15.51 2°53.76 14.8437 0.083219 0.42693 -2.458615
2012-04-05 06:54:36 51°15.524 2°53.747 14.845 0.083219 0.426923 -2.458615
2012-04-05 06:54:41 51°15.538 2°53.733 14.8353 0.083219 0.42693 -2.458615
2012-04-05 06:54:46 51°15.552 2°53.721 14.8636 0.083322 0.427475 -2.458615
2012-04-05 06:54:51 51°15.566 2°53.708 14.8648 0.083322 0.427475 -2.458615
2012-04-05 06:54:56 51°15.58 2°53.695 14.8504 0.083322 0.427475 -2.458615
2012-04-05 06:55:01 51°15.594 2°53.681 14.8531 0.083219 0.426937 -2.458615
2012-04-05 06:55:06 51°15.608 2°53.67 14.8533 0.083219 0.426923 -2.458615
2012-04-05 06:55:11 51°15.623 2°53.658 14.8763 0.083219 0.426923 -2.458615
2012-04-05 06:55:16 51°15.637 2°53.647 14.8478 0.083219 0.42693 -2.458615
2012-04-05 06:55:21 51°15.652 2°53.636 14.8737 0.083219 0.42693 -2.458615
2012-04-05 06:55:26 51°15.666 2°53.624 14.8838 0.083219 0.42693 -2.458615
2012-04-05 06:55:31 51°15.68 2°53.612 14.8396 0.083219 0.42695 -2.458615
2012-04-05 06:55:36 51°15.694 2°53.6 14.8326 0.083219 0.426937 -2.458615
2012-04-05 06:55:41 51°15.708 2°53.589 14.8489 0.083219 0.426937 -2.458615
2012-04-05 06:55:46 51°15.722 2°53.578 14.8832 0.083322 0.427475 -2.458615
2012-04-05 06:55:51 51°15.736 2°53.566 14.8823 0.083322 0.427475 -2.458615
2012-04-05 06:55:56 51°15.75 2°53.553 14.8776 0.083322 0.427475 -2.458615
2012-04-05 06:56:01 51°15.764 2°53.541 14.8434 0.083219 0.426937 -2.458615
2012-04-05 06:56:06 51°15.778 2°53.528 14.8394 0.083322 0.427475 -2.458615
2012-04-05 06:56:11 51°15.792 2°53.517 14.8401 0.083219 0.426923 -2.458615
2012-04-05 06:56:16 51°15.806 2°53.506 14.8412 0.083219 0.42693 -2.458615
2012-04-05 06:56:21 51°15.82 2°53.495 14.8752 0.083219 0.42693 -2.458615
2012-04-05 06:56:26 51°15.834 2°53.483 14.8417 0.083219 0.42693 -2.458615
2012-04-05 06:56:31 51°15.848 2°53.472 14.8643 0.083219 0.426923 -2.458615
2012-04-05 06:56:36 51°15.862 2°53.461 14.8442 0.083219 0.426916 -2.458615
2012-04-05 06:56:41 51°15.876 2°53.451 14.8605 0.083219 0.426916 -2.458615
2012-04-05 06:56:46 51°15.89 2°53.44 14.8948 0.083322 0.427468 -2.458615
2012-04-05 06:56:51 51°15.904 2°53.43 14.8712 0.083219 0.42693 -2.458615
2012-04-05 06:56:56 51°15.918 2°53.419 14.8388 0.083219 0.42693 -2.458615
2012-04-05 06:57:01 51°15.932 2°53.409 14.8617 0.083322 0.427468 -2.458615
2012-04-05 06:57:06 51°15.946 2°53.397 14.874 0.083219 0.426923 -2.458615
2012-04-05 06:57:11 51°15.96 2°53.385 14.8697 0.083322 0.427475 -2.458615
2012-04-05 06:57:16 51°15.973 2°53.371 14.8486 0.083219 0.426923 -2.458615
2012-04-05 06:57:21 51°15.987 2°53.358 14.8355 0.083219 0.426916 -2.458615
2012-04-05 06:57:26 51°16.001 2°53.346 14.8437 0.083219 0.426916 -2.458615
2012-04-05 06:57:31 51°16.014 2°53.334 14.8524 0.083219 0.426916 -2.458615
2012-04-05 06:57:36 51°16.029 2°53.324 14.8486 0.083219 0.426916 -2.458615
2012-04-05 06:57:41 51°16.043 2°53.314 14.8563 0.083219 0.426916 -2.458615
2012-04-05 06:57:45 51°16.055 2°53.306 14.8694 0.083219 0.426923 -2.458615
2012-04-05 06:57:51 51°16.072 2°53.293 14.8521 0.083219 0.426923 -2.458615
2012-04-05 06:57:56 51°16.087 2°53.283 14.8439 0.083219 0.426923 -2.458615
2012-04-05 06:58:01 51°16.101 2°53.273 14.8696 0.083322 0.427461 -2.458615
2012-04-05 06:58:05 51°16.112 2°53.264 14.8571 0.083219 0.426916 -2.458615
2012-04-05 06:58:11 51°16.13 2°53.252 14.8601 0.083219 0.426909 -2.458615
2012-04-05 06:58:16 51°16.144 2°53.241 14.8725 0.083219 0.426909 -2.458615
2012-04-05 06:58:21 51°16.159 2°53.231 14.8593 0.083219 0.426916 -2.458615
2012-04-05 06:58:25 51°16.17 2°53.222 14.8491 0.083219 0.426916 -2.458615
2012-04-05 06:58:30 51°16.185 2°53.212 14.8734 0.083322 0.427461 -2.458615
2012-04-05 06:58:36 51°16.202 2°53.2 14.8695 0.083219 0.426909 -2.458615
2012-04-05 06:58:41 51°16.217 2°53.192 14.8517 0.083219 0.426909 -2.458615
2012-04-05 06:58:45 51°16.229 2°53.186 14.8758 0.083219 0.426916 -2.458615
2012-04-05 06:58:50 51°16.243 2°53.177 14.8738 0.083322 0.427461 -2.458615
2012-04-05 06:58:55 51°16.258 2°53.167 14.8905 0.083322 0.427461 -2.458615
2012-04-05 06:59:01 51°16.275 2°53.154 14.8631 0.083322 0.427468 -2.458615
2012-04-05 06:59:05 51°16.286 2°53.144 14.8493 0.083322 0.427475 -2.458615
2012-04-05 06:59:10 51°16.3 2°53.131 14.8511 0.083219 0.426916 -2.458615
2012-04-05 06:59:15 51°16.314 2°53.12 14.8502 0.083219 0.426923 -2.458615
2012-04-05 06:59:21 51°16.331 2°53.105 14.8767 0.083322 0.427461 -2.458615
2012-04-05 06:59:25 51°16.342 2°53.095 14.8522 0.083322 0.427461 -2.458615
2012-04-05 06:59:30 51°16.356 2°53.083 14.8805 0.083219 0.426916 -2.458615
2012-04-05 06:59:35 51°16.37 2°53.072 14.8639 0.083219 0.426923 -2.458615
2012-04-05 06:59:41 51°16.388 2°53.059 14.8657 0.083219 0.426916 -2.458615
2012-04-05 06:59:45 51°16.399 2°53.051 14.8741 0.083219 0.426916 -2.458615
2012-04-05 06:59:50 51°16.413 2°53.041 14.8539 0.083219 0.426916 -2.458615
2012-04-05 06:59:55 51°16.428 2°53.031 14.8611 0.083219 0.426916 -2.458615
2012-04-05 07:00:01 51°16.445 2°53.019 14.8844 0.083322 0.427468 -2.458615
2012-04-05 07:00:05 51°16.456 2°53.011 14.8685 0.083322 0.427468 -2.458615
2012-04-05 07:00:10 51°16.47 2°53.001 14.8568 0.083219 0.426909 -2.458615
2012-04-05 07:00:16 51°16.488 2°52.989 14.8846 0.083322 0.427475 -2.458615
2012-04-05 07:00:21 51°16.501 2°52.979 14.8801 0.083322 0.427461 -2.458615
2012-04-05 07:00:25 51°16.512 2°52.972 14.8922 0.083322 0.427461 -2.458615
2012-04-05 07:00:30 51°16.526 2°52.961 14.8708 0.083322 0.427461 -2.458615
2012-04-05 07:00:35 51°16.54 2°52.951 14.887 0.083322 0.427461 -2.458615
2012-04-05 07:00:41 51°16.557 2°52.939 14.8817 0.083219 0.426916 -2.458615
2012-04-05 07:00:45 51°16.569 2°52.931 14.8811 0.083322 0.427455 -2.458615
2012-04-05 07:00:50 51°16.583 2°52.921 14.8918 0.083219 0.426909 -2.458615
2012-04-05 07:00:55 51°16.597 2°52.912 14.8705 0.083219 0.426909 -2.458615
2012-04-05 07:01:01 51°16.614 2°52.901 14.8912 0.083219 0.426909 -2.458615
2012-04-05 07:01:05 51°16.626 2°52.893 14.8726 0.083322 0.427468 -2.458615
2012-04-05 07:01:10 51°16.64 2°52.883 14.8855 0.083322 0.427468 -2.458615
2012-04-05 07:01:15 51°16.654 2°52.873 14.8848 0.083219 0.426916 -2.458615
2012-04-05 07:01:21 51°16.672 2°52.86 14.8671 0.083219 0.426923 -2.458615
2012-04-05 07:01:25 51°16.683 2°52.852 14.8707 0.083219 0.426923 -2.458615
2012-04-05 07:01:30 51°16.697 2°52.842 14.8848 0.083322 0.427461 -2.458615
2012-04-05 07:01:35 51°16.712 2°52.832 14.8686 0.083322 0.427455 -2.458615
2012-04-05 07:01:41 51°16.728 2°52.82 14.8827 0.083219 0.426923 -2.458615
2012-04-05 07:01:45 51°16.74 2°52.811 14.8907 0.083219 0.426909 -2.458615
2012-04-05 07:01:50 51°16.753 2°52.801 14.8821 0.083219 0.426902 -2.458615
2012-04-05 07:01:55 51°16.767 2°52.79 14.8811 0.083219 0.426902 -2.458615
2012-04-05 07:02:00 51°16.781 2°52.78 14.8867 0.083322 0.427448 -2.458615
2012-04-05 07:02:05 51°16.795 2°52.77 14.8861 0.083322 0.427455 -2.458615
2012-04-05 07:02:10 51°16.809 2°52.76 14.8916 0.083219 0.426902 -2.458615
2012-04-05 07:02:15 51°16.824 2°52.751 14.8825 0.083322 0.427448 -2.458615
2012-04-05 07:02:20 51°16.838 2°52.741 14.8809 0.083219 0.426909 -2.458615
2012-04-05 07:02:25 51°16.852 2°52.732 14.8736 0.083219 0.426909 -2.458615
2012-04-05 07:02:30 51°16.866 2°52.723 14.8958 0.083322 0.427448 -2.458615
2012-04-05 07:02:35 51°16.881 2°52.714 14.8815 0.083219 0.426909 -2.458615
2012-04-05 07:02:40 51°16.895 2°52.706 14.8811 0.083219 0.426909 -2.458615
2012-04-05 07:02:45 51°16.909 2°52.697 14.8924 0.083219 0.426902 -2.458615
2012-04-05 07:02:50 51°16.924 2°52.688 14.8836 0.083322 0.427441 -2.458615
2012-04-05 07:02:55 51°16.938 2°52.68 14.8946 0.083322 0.427441 -2.458615
2012-04-05 07:03:00 51°16.953 2°52.672 14.8966 0.083219 0.426895 -2.458615
2012-04-05 07:03:05 51°16.967 2°52.665 14.8929 0.083219 0.426902 -2.458615
2012-04-05 07:03:10 51°16.982 2°52.657 14.8979 0.083219 0.426902 -2.458615
2012-04-05 07:03:15 51°16.996 2°52.65 14.9089 0.083322 0.427427 -2.458615
2012-04-05 07:03:20 51°17.01 2°52.643 14.9004 0.083219 0.426902 -2.458615
2012-04-05 07:03:25 51°17.025 2°52.636 14.8885 0.083219 0.426902 -2.458615
2012-04-05 07:03:30 51°17.039 2°52.629 14.8985 0.083322 0.427448 -2.458615
2012-04-05 07:03:35 51°17.053 2°52.621 14.8872 0.083219 0.426895 -2.458615
2012-04-05 07:03:40 51°17.067 2°52.613 14.904 0.083322 0.427441 -2.458615
2012-04-05 07:03:45 51°17.081 2°52.605 14.8989 0.083322 0.427441 -2.458615
2012-04-05 07:03:50 51°17.096 2°52.598 14.8945 0.083219 0.426895 -2.458615
2012-04-05 07:03:55 51°17.11 2°52.591 14.9019 0.083219 0.426895 -2.458615
2012-04-05 07:04:00 51°17.124 2°52.585 14.8991 0.083322 0.427441 -2.458615
2012-04-05 07:04:05 51°17.139 2°52.579 14.8927 0.083219 0.426895 -2.458615
2012-04-05 07:04:10 51°17.154 2°52.574 14.8987 0.083322 0.427441 -2.458615
2012-04-05 07:04:15 51°17.169 2°52.568 14.8963 0.083322 0.427441 -2.458615
2012-04-05 07:04:20 51°17.183 2°52.563 14.8984 0.083219 0.426902 -2.458615
2012-04-05 07:04:25 51°17.198 2°52.558 14.8982 0.083219 0.426902 -2.458615
2012-04-05 07:04:30 51°17.213 2°52.553 14.8941 0.083219 0.426909 -2.458615
2012-04-05 07:04:35 51°17.228 2°52.549 14.9048 0.083219 0.426895 -2.458615
2012-04-05 07:04:40 51°17.243 2°52.545 14.9046 0.083219 0.426895 -2.458615
2012-04-05 07:04:45 51°17.258 2°52.542 14.897 0.083219 0.426902 -2.458615
2012-04-05 07:04:50 51°17.274 2°52.54 14.911 0.083219 0.426895 -2.458615
2012-04-05 07:04:55 51°17.288 2°52.537 14.9021 0.083219 0.426895 -2.458615
2012-04-05 07:05:00 51°17.303 2°52.534 14.9024 0.083322 0.427455 -2.458615
2012-04-05 07:05:05 51°17.318 2°52.532 14.9062 0.083219 0.426902 -2.458615
2012-04-05 07:05:09 51°17.33 2°52.529 14.9032 0.083219 0.426909 -2.458615
2012-04-05 07:05:15 51°17.348 2°52.525 14.9178 0.083322 0.427455 -2.458615
2012-04-05 07:05:20 51°17.362 2°52.521 14.9183 0.083219 0.426909 -2.458615
2012-04-05 07:05:25 51°17.377 2°52.518 14.9145 0.083219 0.426909 -2.458615
2012-04-05 07:05:29 51°17.389 2°52.515 14.9139 0.083322 0.427461 -2.458615
2012-04-05 07:05:35 51°17.406 2°52.511 14.9122 0.083219 0.426909 -2.458615
2012-04-05 07:05:40 51°17.421 2°52.508 14.9132 0.083322 0.427455 -2.458615
2012-04-05 07:05:45 51°17.436 2°52.504 14.9106 0.083219 0.426902 -2.458615
2012-04-05 07:05:49 51°17.448 2°52.502 14.916 0.083219 0.426902 -2.458615
2012-04-05 07:05:54 51°17.463 2°52.5 14.9133 0.083219 0.426902 -2.458615
2012-04-05 07:06:00 51°17.481 2°52.498 14.91 0.083219 0.426895 -2.458615
2012-04-05 07:06:05 51°17.496 2°52.498 14.9208 0.083219 0.426895 -2.458615
2012-04-05 07:06:09 51°17.508 2°52.499 14.9231 0.083322 0.427448 -2.458615
2012-04-05 07:06:15 51°17.525 2°52.498 14.907 0.083219 0.426902 -2.458615
2012-04-05 07:06:20 51°17.54 2°52.499 14.9091 0.083219 0.426909 -2.458615
2012-04-05 07:06:25 51°17.555 2°52.499 14.9204 0.083219 0.426909 -2.458615
2012-04-05 07:06:29 51°17.567 2°52.5 14.9119 0.083219 0.426902 -2.458615
2012-04-05 07:06:34 51°17.581 2°52.501 14.9113 0.083219 0.426902 -2.458615
2012-04-05 07:06:40 51°17.599 2°52.502 14.911 0.083219 0.426909 -2.458615
2012-04-05 07:06:45 51°17.614 2°52.503 14.92 0.083219 0.426909 -2.458615
2012-04-05 07:06:49 51°17.625 2°52.503 14.9262 0.083322 0.427455 -2.458615
2012-04-05 07:06:54 51°17.64 2°52.505 14.9235 0.083322 0.427455 -2.458615
2012-04-05 07:07:00 51°17.657 2°52.506 14.9221 0.083219 0.426909 -2.458615
2012-04-05 07:07:05 51°17.672 2°52.506 14.915 0.083322 0.427455 -2.458615
2012-04-05 07:07:09 51°17.684 2°52.506 14.9258 0.083219 0.426902 -2.458615
2012-04-05 07:07:15 51°17.701 2°52.507 14.9252 0.083219 0.426902 -2.458615
2012-04-05 07:07:20 51°17.716 2°52.509 14.9263 0.083219 0.426902 -2.458615
2012-04-05 07:07:25 51°17.731 2°52.511 14.9184 0.083219 0.426902 -2.458615
2012-04-05 07:07:29 51°17.742 2°52.513 14.9302 0.083219 0.426895 -2.458615
2012-04-05 07:07:34 51°17.756 2°52.516 14.9256 0.083322 0.427461 -2.458615
2012-04-05 07:07:40 51°17.773 2°52.518 14.9235 0.083219 0.426902 -2.458615
2012-04-05 07:07:45 51°17.787 2°52.52 14.925 0.083219 0.426909 -2.458615
2012-04-05 07:07:49 51°17.799 2°52.521 14.9161 0.083219 0.426902 -2.458615
2012-04-05 07:07:54 51°17.813 2°52.523 14.9221 0.083219 0.426902 -2.458615
2012-04-05 07:08:00 51°17.831 2°52.526 14.9276 0.083322 0.427441 -2.458615
2012-04-05 07:08:05 51°17.844 2°52.527 14.9268 0.083219 0.426902 -2.458615
2012-04-05 07:08:09 51°17.856 2°52.528 14.9257 0.083219 0.426902 -2.458615
2012-04-05 07:08:14 51°17.87 2°52.529 14.9227 0.083322 0.427448 -2.458615
2012-04-05 07:08:20 51°17.888 2°52.531 14.9298 0.083322 0.427448 -2.458615
2012-04-05 07:08:25 51°17.902 2°52.533 14.9321 0.083322 0.427448 -2.458615
2012-04-05 07:08:29 51°17.914 2°52.533 14.9264 0.083219 0.426902 -2.458615
2012-04-05 07:08:34 51°17.928 2°52.536 14.9269 0.083322 0.427448 -2.458615
2012-04-05 07:08:39 51°17.943 2°52.539 14.9334 0.083219 0.426916 -2.458615
2012-04-05 07:08:45 51°17.96 2°52.543 14.9351 0.083322 0.427461 -2.458615
2012-04-05 07:08:49 51°17.971 2°52.546 14.9368 0.083219 0.426916 -2.458615
2012-04-05 07:08:54 51°17.986 2°52.55 14.9354 0.083219 0.426916 -2.458615
2012-04-05 07:08:59 51°18 2°52.554 14.938 0.083219 0.426916 -2.458615
2012-04-05 07:09:04 51°18.014 2°52.56 14.9343 0.083322 0.427468 -2.458615
2012-04-05 07:09:09 51°18.028 2°52.565 14.938 0.083322 0.427461 -2.458615
2012-04-05 07:09:14 51°18.042 2°52.57 14.9342 0.083219 0.426909 -2.458615
2012-04-05 07:09:19 51°18.056 2°52.576 14.9365 0.083219 0.426916 -2.458615
2012-04-05 07:09:24 51°18.07 2°52.583 14.9406 0.083219 0.426916 -2.458615
2012-04-05 07:09:29 51°18.083 2°52.589 14.9414 0.083322 0.427461 -2.458615
2012-04-05 07:09:34 51°18.097 2°52.596 14.9369 0.083219 0.426909 -2.458615
2012-04-05 07:09:39 51°18.111 2°52.603 14.9371 0.083219 0.426923 -2.458615
2012-04-05 07:09:44 51°18.124 2°52.611 14.9427 0.083322 0.427468 -2.458615
2012-04-05 07:09:49 51°18.137 2°52.618 14.9427 0.083219 0.426902 -2.458615
2012-04-05 07:09:54 51°18.15 2°52.627 14.9411 0.083219 0.426902 -2.458615
2012-04-05 07:09:59 51°18.163 2°52.636 14.9393 0.083322 0.427448 -2.458615
2012-04-05 07:10:04 51°18.176 2°52.645 14.9467 0.083219 0.426888 -2.458615
2012-04-05 07:10:09 51°18.189 2°52.656 14.9436 0.083219 0.426902 -2.458615
2012-04-05 07:10:14 51°18.202 2°52.666 14.9424 0.083219 0.426909 -2.458615
2012-04-05 07:10:19 51°18.215 2°52.678 14.9487 0.083322 0.427461 -2.458615
2012-04-05 07:10:24 51°18.227 2°52.69 14.9468 0.083322 0.427461 -2.458615
2012-04-05 07:10:29 51°18.239 2°52.703 14.9463 0.083322 0.427468 -2.458615
2012-04-05 07:10:34 51°18.25 2°52.716 14.9506 0.083219 0.42693 -2.458615
2012-04-05 07:10:39 51°18.262 2°52.73 14.9483 0.083219 0.42693 -2.458615
2012-04-05 07:10:44 51°18.272 2°52.744 14.9497 0.083219 0.426943 -2.458615
2012-04-05 07:10:49 51°18.283 2°52.76 14.9526 0.083322 0.427482 -2.458615
2012-04-05 07:10:54 51°18.294 2°52.775 14.9533 0.083322 0.427482 -2.458615
2012-04-05 07:10:59 51°18.304 2°52.791 14.9502 0.083322 0.427468 -2.458615
2012-04-05 07:11:04 51°18.315 2°52.806 14.9575 0.083219 0.426923 -2.458615
2012-04-05 07:11:09 51°18.325 2°52.823 14.9568 0.083322 0.427475 -2.458615
2012-04-05 07:11:14 51°18.335 2°52.839 14.954 0.083322 0.427468 -2.458615
2012-04-05 07:11:19 51°18.345 2°52.855 14.9578 0.083322 0.427468 -2.458615
2012-04-05 07:11:24 51°18.355 2°52.871 14.9555 0.083322 0.427468 -2.458615
2012-04-05 07:11:29 51°18.365 2°52.887 14.951 0.083322 0.427461 -2.458615
2012-04-05 07:11:34 51°18.375 2°52.904 14.9576 0.083219 0.426916 -2.458615
2012-04-05 07:11:39 51°18.384 2°52.922 14.9587 0.083322 0.427461 -2.458615
2012-04-05 07:11:44 51°18.393 2°52.939 14.9539 0.083322 0.427455 -2.458615
2012-04-05 07:11:49 51°18.402 2°52.956 14.9587 0.083322 0.427455 -2.458615
2012-04-05 07:11:54 51°18.411 2°52.974 14.9572 0.083322 0.427455 -2.458615
2012-04-05 07:11:59 51°18.42 2°52.992 14.9613 0.083322 0.427455 -2.458615
2012-04-05 07:12:04 51°18.428 2°53.01 14.9619 0.083322 0.427468 -2.458615
2012-04-05 07:12:09 51°18.437 2°53.029 14.9608 0.083322 0.427489 -2.458615
2012-04-05 07:12:14 51°18.446 2°53.047 14.9633 0.083322 0.427496 -2.458615
2012-04-05 07:12:19 51°18.454 2°53.066 14.9628 0.083322 0.42751 -2.458615
2012-04-05 07:12:24 51°18.463 2°53.084 14.964 0.083322 0.42751 -2.458615
2012-04-05 07:12:29 51°18.473 2°53.103 14.9616 0.083219 0.426971 -2.458615
2012-04-05 07:12:33 51°18.479 2°53.118 14.9616 0.083322 0.42751 -2.458615
2012-04-05 07:12:39 51°18.489 2°53.14 14.9653 0.083322 0.42751 -2.458615
2012-04-05 07:12:44 51°18.498 2°53.159 14.9657 0.083219 0.42695 -2.458615
2012-04-05 07:12:49 51°18.507 2°53.178 14.969 0.083322 0.427489 -2.458615
2012-04-05 07:12:53 51°18.513 2°53.193 14.9658 0.083322 0.427489 -2.458615
2012-04-05 07:12:59 51°18.523 2°53.216 14.9659 0.083322 0.427489 -2.458615
2012-04-05 07:13:04 51°18.532 2°53.234 14.9702 0.083219 0.426943 -2.458615
2012-04-05 07:13:09 51°18.54 2°53.254 14.9672 0.083322 0.427503 -2.458615
2012-04-05 07:13:14 51°18.55 2°53.272 14.9709 0.083322 0.427496 -2.458615
2012-04-05 07:13:19 51°18.558 2°53.29 14.9722 0.083322 0.427503 -2.458615
2012-04-05 07:13:24 51°18.567 2°53.309 14.9728 0.083322 0.427503 -2.458615
2012-04-05 07:13:29 51°18.576 2°53.327 14.9716 0.083322 0.427496 -2.458615
2012-04-05 07:13:33 51°18.584 2°53.341 14.971 0.083322 0.427475 -2.458615
2012-04-05 07:13:39 51°18.595 2°53.362 14.9672 0.083322 0.427468 -2.458615
2012-04-05 07:13:44 51°18.604 2°53.379 14.9754 0.083322 0.427461 -2.458615
2012-04-05 07:13:49 51°18.614 2°53.398 14.9746 0.083219 0.426923 -2.458615
2012-04-05 07:13:53 51°18.621 2°53.411 14.9685 0.083219 0.426923 -2.458615
2012-04-05 07:13:59 51°18.633 2°53.432 14.9686 0.083322 0.427489 -2.458615
2012-04-05 07:14:04 51°18.642 2°53.449 14.9744 0.083322 0.427496 -2.458615
2012-04-05 07:14:09 51°18.652 2°53.466 14.9735 0.083322 0.427489 -2.458615
2012-04-05 07:14:14 51°18.662 2°53.482 14.9746 0.083322 0.427489 -2.458615
2012-04-05 07:14:19 51°18.672 2°53.499 14.9718 0.083219 0.426937 -2.458615
2012-04-05 07:14:24 51°18.682 2°53.516 14.9718 0.083219 0.426937 -2.458615
2012-04-05 07:14:29 51°18.692 2°53.533 14.9749 0.083322 0.427496 -2.458615
2012-04-05 07:14:33 51°18.699 2°53.547 14.9795 0.083322 0.427517 -2.458615
2012-04-05 07:14:39 51°18.711 2°53.568 14.9747 0.083322 0.427531 -2.458615
2012-04-05 07:14:44 51°18.72 2°53.586 14.9723 0.083322 0.427531 -2.458615
2012-04-05 07:14:49 51°18.729 2°53.602 14.9795 0.083322 0.427475 -2.458615
2012-04-05 07:14:53 51°18.736 2°53.616 14.9767 0.083322 0.427475 -2.458615
2012-04-05 07:14:59 51°18.747 2°53.635 14.9785 0.083322 0.427448 -2.458615
2012-04-05 07:15:04 51°18.757 2°53.652 14.9778 0.083322 0.427392 -2.458615
2012-04-05 07:15:09 51°18.767 2°53.668 14.9747 0.083322 0.427385 -2.458615
2012-04-05 07:15:13 51°18.775 2°53.681 14.9804 0.083322 0.427406 -2.458615
2012-04-05 07:15:19 51°18.787 2°53.702 14.9822 0.083322 0.427455 -2.458615
2012-04-05 07:15:24 51°18.796 2°53.719 14.9788 0.083322 0.427455 -2.458615
2012-04-05 07:15:29 51°18.806 2°53.735 14.9794 0.083219 0.426957 -2.458615
2012-04-05 07:15:33 51°18.813 2°53.749 14.9804 0.083322 0.427538 -2.458615
2012-04-05 07:15:39 51°18.825 2°53.77 14.9818 0.083322 0.427565 -2.458615
2012-04-05 07:15:44 51°18.835 2°53.787 14.9832 0.083322 0.427572 -2.458615
2012-04-05 07:15:49 51°18.845 2°53.804 14.9795 0.083322 0.427579 -2.458615
2012-04-05 07:15:53 51°18.853 2°53.817 14.9799 0.083322 0.427579 -2.458615
2012-04-05 07:15:59 51°18.864 2°53.838 14.985 0.083322 0.427572 -2.458615
2012-04-05 07:16:04 51°18.874 2°53.855 14.9834 0.083322 0.427565 -2.458615
2012-04-05 07:16:09 51°18.884 2°53.872 14.9862 0.083322 0.427551 -2.458615
2012-04-05 07:16:13 51°18.891 2°53.886 14.9854 0.083322 0.427538 -2.458615
2012-04-05 07:16:19 51°18.903 2°53.907 14.9875 0.083322 0.427538 -2.458615
2012-04-05 07:16:24 51°18.913 2°53.925 14.9896 0.083322 0.427538 -2.458615
2012-04-05 07:16:29 51°18.923 2°53.942 14.9901 0.083322 0.427538 -2.458615
2012-04-05 07:16:33 51°18.93 2°53.957 14.9865 0.083322 0.427531 -2.458615
2012-04-05 07:16:39 51°18.941 2°53.977 14.9897 0.083322 0.427524 -2.458615
2012-04-05 07:16:44 51°18.951 2°53.995 14.9889 0.083322 0.427517 -2.458615
2012-04-05 07:16:49 51°18.961 2°54.013 14.9864 0.083322 0.427517 -2.458615
2012-04-05 07:16:53 51°18.969 2°54.027 14.9937 0.083322 0.427517 -2.458615
2012-04-05 07:16:59 51°18.98 2°54.048 14.9908 0.083322 0.427517 -2.458615
2012-04-05 07:17:04 51°18.99 2°54.065 14.9951 0.083322 0.427524 -2.458615
2012-04-05 07:17:09 51°19 2°54.082 14.9943 0.083322 0.427531 -2.458615
2012-04-05 07:17:13 51°19.009 2°54.096 14.994 0.083322 0.427545 -2.458615
2012-04-05 07:17:19 51°19.021 2°54.115 14.9888 0.083322 0.427551 -2.458615
2012-04-05 07:17:24 51°19.031 2°54.132 14.997 0.083322 0.427551 -2.458615
2012-04-05 07:17:29 51°19.041 2°54.15 14.9939 0.083322 0.427524 -2.458615
2012-04-05 07:17:33 51°19.05 2°54.163 14.9934 0.083322 0.427503 -2.458615
2012-04-05 07:17:38 51°19.06 2°54.18 14.9925 0.083322 0.427503 -2.458615
2012-04-05 07:17:44 51°19.073 2°54.2 14.9985 0.083322 0.427503 -2.458615
2012-04-05 07:17:49 51°19.083 2°54.216 14.9927 0.083322 0.42751 -2.458615
2012-04-05 07:17:53 51°19.091 2°54.228 14.9964 0.083322 0.42751 -2.458615
2012-04-05 07:17:58 51°19.102 2°54.245 14.9972 0.083322 0.427517 -2.458615
2012-04-05 07:18:04 51°19.114 2°54.264 14.9962 0.083322 0.427517 -2.458615
2012-04-05 07:18:09 51°19.124 2°54.281 14.9989 0.083219 0.426992 -2.458615
2012-04-05 07:18:13 51°19.132 2°54.294 14.9971 0.083322 0.427551 -2.458615
2012-04-05 07:18:19 51°19.143 2°54.316 14.9947 0.083322 0.427565 -2.458615
2012-04-05 07:18:24 51°19.152 2°54.335 14.9953 0.083322 0.427565 -2.458615
2012-04-05 07:18:29 51°19.161 2°54.353 15.0008 0.083322 0.427551 -2.458615
2012-04-05 07:18:33 51°19.168 2°54.368 15.0012 0.083322 0.427551 -2.458615
2012-04-05 07:18:39 51°19.179 2°54.39 14.9973 0.083322 0.427545 -2.458615
2012-04-05 07:18:44 51°19.187 2°54.409 14.9987 0.083322 0.427545 -2.458615
2012-04-05 07:18:49 51°19.196 2°54.428 15.0028 0.083322 0.427517 -2.458615
2012-04-05 07:18:53 51°19.202 2°54.443 15.0003 0.083322 0.427517 -2.458615
2012-04-05 07:18:59 51°19.212 2°54.466 14.999 0.083322 0.427531 -2.458615
2012-04-05 07:19:04 51°19.22 2°54.485 15.0029 0.083322 0.427545 -2.458615
2012-04-05 07:19:09 51°19.229 2°54.503 15.0047 0.083322 0.427565 -2.458615
2012-04-05 07:19:13 51°19.235 2°54.518 15.0049 0.083322 0.427572 -2.458615
2012-04-05 07:19:19 51°19.246 2°54.54 15.0047 0.083322 0.427572 -2.458615
2012-04-05 07:19:24 51°19.255 2°54.559 15.006 0.083322 0.427572 -2.458615
2012-04-05 07:19:29 51°19.264 2°54.577 15.0041 0.083219 0.42704 -2.458615
2012-04-05 07:19:33 51°19.271 2°54.591 15.007 0.083322 0.427593 -2.458615
2012-04-05 07:19:39 51°19.281 2°54.614 15.0102 0.083322 0.427593 -2.458615
2012-04-05 07:19:44 51°19.29 2°54.633 15.0072 0.083322 0.427593 -2.458615
2012-04-05 07:19:49 51°19.299 2°54.65 15.0094 0.083322 0.4276 -2.458615
2012-04-05 07:19:53 51°19.306 2°54.665 15.0093 0.083322 0.4276 -2.458615
2012-04-05 07:19:58 51°19.314 2°54.683 15.0056 0.083322 0.4276 -2.458615
2012-04-05 07:20:04 51°19.324 2°54.705 15.0122 0.083322 0.427586 -2.458615
2012-04-05 07:20:09 51°19.333 2°54.723 15.0044 0.083322 0.427579 -2.458615
2012-04-05 07:20:13 51°19.34 2°54.737 15.0092 0.083322 0.427565 -2.458615
2012-04-05 07:20:18 51°19.348 2°54.755 15.0063 0.083322 0.427545 -2.458615
2012-04-05 07:20:24 51°19.359 2°54.776 15.0106 0.083322 0.427545 -2.458615
2012-04-05 07:20:29 51°19.368 2°54.794 15.0102 0.083322 0.427517 -2.458615
2012-04-05 07:20:33 51°19.375 2°54.808 15.0116 0.083322 0.427524 -2.458615
2012-04-05 07:20:39 51°19.386 2°54.83 15.0149 0.083322 0.427531 -2.458615
2012-04-05 07:20:44 51°19.395 2°54.848 15.0126 0.083322 0.427558 -2.458615
2012-04-05 07:20:49 51°19.404 2°54.866 15.0152 0.083322 0.427579 -2.458615
2012-04-05 07:20:53 51°19.411 2°54.88 15.0155 0.083322 0.427579 -2.458615
2012-04-05 07:20:59 51°19.422 2°54.902 15.0167 0.083322 0.4276 -2.458615
2012-04-05 07:21:04 51°19.432 2°54.92 15.0185 0.083322 0.427614 -2.458615
2012-04-05 07:21:09 51°19.44 2°54.937 15.0069 0.083322 0.427614 -2.458615
2012-04-05 07:21:13 51°19.448 2°54.951 15.0079 0.083322 0.427614 -2.458615
2012-04-05 07:21:19 51°19.458 2°54.972 15.0149 0.083322 0.427586 -2.458615
2012-04-05 07:21:24 51°19.467 2°54.989 15.0164 0.083322 0.427586 -2.458615
2012-04-05 07:21:29 51°19.476 2°55.007 15.0146 0.083322 0.427565 -2.458615
2012-04-05 07:21:33 51°19.483 2°55.02 15.0139 0.083322 0.427558 -2.458615
2012-04-05 07:21:39 51°19.494 2°55.041 15.0166 0.083322 0.427565 -2.458615
2012-04-05 07:21:44 51°19.502 2°55.059 15.012 0.083322 0.427593 -2.458615
2012-04-05 07:21:49 51°19.511 2°55.077 15.0185 0.083322 0.427621 -2.458615
2012-04-05 07:21:53 51°19.518 2°55.092 15.0134 0.083322 0.427621 -2.458615
2012-04-05 07:21:58 51°19.527 2°55.109 15.0171 0.083322 0.427635 -2.458615
2012-04-05 07:22:04 51°19.537 2°55.131 15.0185 0.083219 0.427103 -2.458615
2012-04-05 07:22:09 51°19.546 2°55.15 15.0221 0.083322 0.427655 -2.458615
2012-04-05 07:22:13 51°19.553 2°55.163 15.0238 0.083322 0.427641 -2.458615
2012-04-05 07:22:18 51°19.562 2°55.181 15.0215 0.083322 0.427635 -2.458615
2012-04-05 07:22:24 51°19.573 2°55.201 15.0233 0.083322 0.427635 -2.458615
2012-04-05 07:22:29 51°19.582 2°55.219 15.0266 0.083322 0.427628 -2.458615
2012-04-05 07:22:33 51°19.589 2°55.233 15.0287 0.083322 0.427648 -2.458615
2012-04-05 07:22:39 51°19.599 2°55.254 15.0219 0.083322 0.427669 -2.458615
2012-04-05 07:22:44 51°19.609 2°55.271 15.0214 0.083322 0.427676 -2.458615
2012-04-05 07:22:49 51°19.618 2°55.288 15.0264 0.083322 0.427683 -2.458615
2012-04-05 07:22:53 51°19.626 2°55.301 15.0231 0.083322 0.427683 -2.458615
2012-04-05 07:22:59 51°19.636 2°55.322 15.0287 0.083322 0.427669 -2.458615
2012-04-05 07:23:04 51°19.646 2°55.339 15.0304 0.083322 0.427655 -2.458615
2012-04-05 07:23:09 51°19.655 2°55.356 15.027 0.083322 0.427655 -2.458615
2012-04-05 07:23:13 51°19.662 2°55.37 15.0301 0.083322 0.427662 -2.458615
2012-04-05 07:23:19 51°19.673 2°55.392 15.0223 0.083322 0.427662 -2.458615
2012-04-05 07:23:24 51°19.683 2°55.408 15.0277 0.083322 0.427662 -2.458615
2012-04-05 07:23:29 51°19.692 2°55.425 15.0282 0.083322 0.427683 -2.458615
2012-04-05 07:23:33 51°19.7 2°55.439 15.0275 0.083322 0.427683 -2.458615
2012-04-05 07:23:39 51°19.71 2°55.46 15.0277 0.083322 0.427697 -2.458615
2012-04-05 07:23:44 51°19.719 2°55.478 15.0322 0.083322 0.427711 -2.458615
2012-04-05 07:23:49 51°19.728 2°55.495 15.032 0.083322 0.427725 -2.458615
2012-04-05 07:23:53 51°19.735 2°55.509 15.0295 0.083322 0.427725 -2.458615
2012-04-05 07:23:59 51°19.745 2°55.53 15.0341 0.083322 0.427711 -2.458615
2012-04-05 07:24:04 51°19.754 2°55.548 15.0326 0.083322 0.427697 -2.458615
2012-04-05 07:24:09 51°19.763 2°55.565 15.0341 0.083322 0.427683 -2.458615
2012-04-05 07:24:13 51°19.77 2°55.579 15.0309 0.083322 0.42769 -2.458615
2012-04-05 07:24:18 51°19.779 2°55.596 15.034 0.083322 0.42769 -2.458615
2012-04-05 07:24:24 51°19.789 2°55.618 15.0344 0.083322 0.42769 -2.458615
2012-04-05 07:24:29 51°19.798 2°55.636 15.0329 0.083322 0.427711 -2.458615
2012-04-05 07:24:33 51°19.805 2°55.65 15.0366 0.083322 0.427725 -2.458615
2012-04-05 07:24:38 51°19.814 2°55.669 15.0367 0.083322 0.427732 -2.458615
2012-04-05 07:24:44 51°19.824 2°55.691 15.0405 0.083219 0.427186 -2.458615
2012-04-05 07:24:49 51°19.833 2°55.71 15.0365 0.083322 0.427732 -2.458615
2012-04-05 07:24:53 51°19.84 2°55.725 15.0366 0.083322 0.427732 -2.458615
2012-04-05 07:24:59 51°19.85 2°55.747 15.0362 0.083322 0.427704 -2.458615
2012-04-05 07:25:04 51°19.858 2°55.766 15.0452 0.083322 0.42769 -2.458615
2012-04-05 07:25:09 51°19.866 2°55.785 15.0419 0.083322 0.427662 -2.458615
2012-04-05 07:25:13 51°19.873 2°55.799 15.0459 0.083322 0.427669 -2.458615
2012-04-05 07:25:19 51°19.883 2°55.822 15.0372 0.083322 0.427683 -2.458615
2012-04-05 07:25:24 51°19.892 2°55.84 15.0395 0.083322 0.427683 -2.458615
2012-04-05 07:25:29 51°19.901 2°55.858 15.0378 0.083322 0.427718 -2.458615
2012-04-05 07:25:33 51°19.908 2°55.872 15.0487 0.083322 0.427752 -2.458615
2012-04-05 07:25:39 51°19.919 2°55.895 15.0422 0.083322 0.42778 -2.458615
2012-04-05 07:25:44 51°19.928 2°55.912 15.0419 0.083322 0.42778 -2.458615
2012-04-05 07:25:49 51°19.937 2°55.93 15.0464 0.083322 0.427787 -2.458615
2012-04-05 07:25:53 51°19.944 2°55.945 15.0468 0.083322 0.427787 -2.458615
2012-04-05 07:25:59 51°19.955 2°55.966 15.0488 0.083322 0.42778 -2.458615
2012-04-05 07:26:04 51°19.965 2°55.984 15.0471 0.083322 0.427773 -2.458615
2012-04-05 07:26:09 51°19.974 2°56.002 15.0451 0.083322 0.427766 -2.458615
2012-04-05 07:26:13 51°19.981 2°56.017 15.0484 0.083322 0.427766 -2.458615
2012-04-05 07:26:19 51°19.993 2°56.038 15.0509 0.083322 0.427759 -2.458615
2012-04-05 07:26:24 51°20.002 2°56.055 15.0472 0.083322 0.427759 -2.458615
2012-04-05 07:26:29 51°20.012 2°56.073 15.0528 0.083322 0.427752 -2.458615
2012-04-05 07:26:33 51°20.019 2°56.087 15.046 0.083322 0.427759 -2.458615
2012-04-05 07:26:39 51°20.031 2°56.108 15.0519 0.083322 0.427752 -2.458615
2012-04-05 07:26:44 51°20.04 2°56.126 15.0444 0.083322 0.427759 -2.458615
2012-04-05 07:26:49 51°20.05 2°56.143 15.0533 0.083322 0.427773 -2.458615
2012-04-05 07:26:53 51°20.056 2°56.159 15.0512 0.083322 0.427773 -2.458615
2012-04-05 07:26:58 51°20.066 2°56.177 15.0538 0.083219 0.427248 -2.458615
2012-04-05 07:27:03 51°20.074 2°56.196 15.0537 0.083322 0.427822 -2.458615
2012-04-05 07:27:09 51°20.085 2°56.219 15.0496 0.083322 0.427835 -2.458615
2012-04-05 07:27:13 51°20.091 2°56.235 15.0506 0.083322 0.427835 -2.458615
2012-04-05 07:27:19 51°20.101 2°56.258 15.0589 0.083425 0.428375 -2.458615
2012-04-05 07:27:24 51°20.109 2°56.277 15.0543 0.083425 0.428375 -2.458615
2012-04-05 07:27:29 51°20.117 2°56.297 15.0591 0.083322 0.427822 -2.458615
2012-04-05 07:27:33 51°20.123 2°56.313 15.0559 0.083322 0.427815 -2.458615
2012-04-05 07:27:39 51°20.132 2°56.337 15.0605 0.083425 0.428375 -2.458615
2012-04-05 07:27:44 51°20.14 2°56.357 15.0537 0.083322 0.427822 -2.458615
2012-04-05 07:27:49 51°20.148 2°56.376 15.0581 0.083322 0.427829 -2.458615
2012-04-05 07:27:53 51°20.154 2°56.392 15.0518 0.083322 0.427829 -2.458615
2012-04-05 07:27:59 51°20.164 2°56.416 15.0587 0.083322 0.427829 -2.458615
2012-04-05 07:28:04 51°20.171 2°56.436 15.0567 0.083322 0.427842 -2.458615
2012-04-05 07:28:09 51°20.179 2°56.456 15.0591 0.083322 0.427842 -2.458615
2012-04-05 07:28:13 51°20.185 2°56.472 15.0607 0.083322 0.427835 -2.458615
2012-04-05 07:28:19 51°20.194 2°56.496 15.0551 0.083322 0.427835 -2.458615
2012-04-05 07:28:24 51°20.202 2°56.516 15.0637 0.083322 0.427835 -2.458615
2012-04-05 07:28:29 51°20.209 2°56.536 15.0612 0.083322 0.427842 -2.458615
2012-04-05 07:28:33 51°20.216 2°56.552 15.0616 0.083322 0.427856 -2.458615
2012-04-05 07:28:39 51°20.226 2°56.575 15.0593 0.083322 0.427877 -2.458615
2012-04-05 07:28:44 51°20.234 2°56.595 15.0617 0.083322 0.427898 -2.458615
2012-04-05 07:28:49 51°20.243 2°56.614 15.0611 0.083322 0.427926 -2.458615
2012-04-05 07:28:53 51°20.249 2°56.63 15.0563 0.083322 0.427926 -2.458615
2012-04-05 07:28:58 51°20.258 2°56.649 15.0604 0.083322 0.427926 -2.458615
2012-04-05 07:29:04 51°20.268 2°56.672 15.0641 0.083322 0.427912 -2.458615
2012-04-05 07:29:09 51°20.276 2°56.692 15.0609 0.083322 0.427884 -2.458615
2012-04-05 07:29:13 51°20.283 2°56.707 15.0619 0.083322 0.427877 -2.458615
2012-04-05 07:29:18 51°20.292 2°56.727 15.068 0.083322 0.427863 -2.458615
2012-04-05 07:29:24 51°20.302 2°56.751 15.0678 0.083322 0.427863 -2.458615
2012-04-05 07:29:29 51°20.31 2°56.771 15.067 0.083322 0.42787 -2.458615
2012-04-05 07:29:33 51°20.317 2°56.787 15.0714 0.083322 0.427884 -2.458615
2012-04-05 07:29:39 51°20.326 2°56.811 15.0671 0.083322 0.427891 -2.458615
2012-04-05 07:29:44 51°20.335 2°56.83 15.0659 0.083322 0.427912 -2.458615
2012-04-05 07:29:49 51°20.343 2°56.85 15.0714 0.083322 0.427905 -2.458615
2012-04-05 07:29:53 51°20.35 2°56.867 15.0735 0.083322 0.427905 -2.458615
2012-04-05 07:29:59 51°20.36 2°56.89 15.0755 0.083322 0.427912 -2.458615
2012-04-05 07:30:04 51°20.368 2°56.91 15.0742 0.083322 0.427912 -2.458615
2012-04-05 07:30:09 51°20.377 2°56.93 15.0778 0.083322 0.427912 -2.458615
2012-04-05 07:30:13 51°20.383 2°56.946 15.0696 0.083322 0.427905 -2.458615
2012-04-05 07:30:19 51°20.394 2°56.967 15.0771 0.083322 0.427905 -2.458615
2012-04-05 07:30:24 51°20.403 2°56.986 15.0662 0.083322 0.427905 -2.458615
2012-04-05 07:30:29 51°20.412 2°57.005 15.0733 0.083322 0.427905 -2.458615
2012-04-05 07:30:33 51°20.418 2°57.021 15.0723 0.083322 0.427912 -2.458615
2012-04-05 07:30:39 51°20.429 2°57.043 15.0744 0.083322 0.427898 -2.458615
2012-04-05 07:30:44 51°20.437 2°57.061 15.0739 0.083219 0.427345 -2.458615
2012-04-05 07:30:49 51°20.446 2°57.08 15.0742 0.083322 0.427898 -2.458615
2012-04-05 07:30:53 51°20.453 2°57.095 15.0741 0.083322 0.427898 -2.458615
2012-04-05 07:30:59 51°20.464 2°57.117 15.0739 0.083219 0.427359 -2.458615
2012-04-05 07:31:04 51°20.472 2°57.137 15.074 0.083322 0.427926 -2.458615
2012-04-05 07:31:09 51°20.481 2°57.156 15.0731 0.083322 0.427926 -2.458615
2012-04-05 07:31:13 51°20.488 2°57.171 15.0785 0.083322 0.427939 -2.458615
2012-04-05 07:31:18 51°20.496 2°57.191 15.0783 0.083219 0.427407 -2.458615
2012-04-05 07:31:24 51°20.506 2°57.213 15.075 0.083219 0.427407 -2.458615
2012-04-05 07:31:29 51°20.515 2°57.232 15.0777 0.083322 0.42796 -2.458615
2012-04-05 07:31:33 51°20.522 2°57.247 15.0782 0.083219 0.427414 -2.458615
2012-04-05 07:31:39 51°20.533 2°57.27 15.0824 0.083322 0.427981 -2.458615
2012-04-05 07:31:44 51°20.542 2°57.288 15.0773 0.083219 0.427421 -2.458615
2012-04-05 07:31:49 51°20.551 2°57.307 15.0823 0.083322 0.427974 -2.458615
2012-04-05 07:31:53 51°20.558 2°57.322 15.0786 0.083322 0.427974 -2.458615
2012-04-05 07:31:59 51°20.568 2°57.345 15.0818 0.083322 0.427974 -2.458615
2012-04-05 07:32:04 51°20.578 2°57.363 15.084 0.083322 0.427981 -2.458615
2012-04-05 07:32:09 51°20.586 2°57.383 15.0793 0.083322 0.427995 -2.458615
2012-04-05 07:32:13 51°20.594 2°57.397 15.0836 0.083322 0.427988 -2.458615
2012-04-05 07:32:19 51°20.604 2°57.42 15.0782 0.083219 0.427442 -2.458615
2012-04-05 07:32:24 51°20.613 2°57.438 15.0832 0.083219 0.427442 -2.458615
2012-04-05 07:32:29 51°20.622 2°57.456 15.0816 0.083322 0.428002 -2.458615
2012-04-05 07:32:33 51°20.63 2°57.47 15.0858 0.083219 0.427449 -2.458615
2012-04-05 07:32:39 51°20.64 2°57.493 15.087 0.083322 0.427995 -2.458615
2012-04-05 07:32:44 51°20.649 2°57.511 15.0841 0.083219 0.427456 -2.458615
2012-04-05 07:32:49 51°20.659 2°57.529 15.0843 0.083322 0.428009 -2.458615
2012-04-05 07:32:53 51°20.666 2°57.544 15.0829 0.083322 0.428009 -2.458615
2012-04-05 07:32:59 51°20.676 2°57.567 15.0883 0.083322 0.428002 -2.458615
2012-04-05 07:33:04 51°20.686 2°57.585 15.0846 0.083322 0.428002 -2.458615
2012-04-05 07:33:09 51°20.695 2°57.604 15.0923 0.083322 0.428002 -2.458615
2012-04-05 07:33:13 51°20.702 2°57.619 15.0841 0.083219 0.427462 -2.458615
2012-04-05 07:33:19 51°20.713 2°57.641 15.0941 0.083322 0.42803 -2.458615
2012-04-05 07:33:24 51°20.722 2°57.66 15.0934 0.083322 0.42803 -2.458615
2012-04-05 07:33:29 51°20.73 2°57.679 15.0947 0.083219 0.427504 -2.458615
2012-04-05 07:33:33 51°20.737 2°57.694 15.0934 0.083322 0.428064 -2.458615
2012-04-05 07:33:38 51°20.746 2°57.712 15.0917 0.083219 0.427504 -2.458615
2012-04-05 07:33:44 51°20.757 2°57.735 15.0931 0.083322 0.428023 -2.458615
2012-04-05 07:33:49 51°20.765 2°57.754 15.0935 0.083219 0.427469 -2.458615
2012-04-05 07:33:53 51°20.772 2°57.769 15.0906 0.083219 0.427469 -2.458615
2012-04-05 07:33:59 51°20.781 2°57.793 15.0949 0.083322 0.428009 -2.458615
2012-04-05 07:34:04 51°20.789 2°57.812 15.0945 0.083219 0.427449 -2.458615
2012-04-05 07:34:09 51°20.797 2°57.832 15.0952 0.083219 0.427462 -2.458615
2012-04-05 07:34:13 51°20.803 2°57.847 15.0938 0.083322 0.428023 -2.458615
2012-04-05 07:34:19 51°20.813 2°57.87 15.0916 0.083322 0.428044 -2.458615
2012-04-05 07:34:24 51°20.821 2°57.89 15.0891 0.083322 0.428044 -2.458615
2012-04-05 07:34:29 51°20.829 2°57.909 15.0987 0.083322 0.428064 -2.458615
2012-04-05 07:34:33 51°20.835 2°57.925 15.0949 0.083219 0.427525 -2.458615
2012-04-05 07:34:39 51°20.844 2°57.949 15.1043 0.083322 0.428085 -2.458615
2012-04-05 07:34:44 51°20.851 2°57.969 15.0906 0.083219 0.427532 -2.458615
2012-04-05 07:34:49 51°20.859 2°57.987 15.0985 0.083322 0.428099 -2.458615
2012-04-05 07:34:53 51°20.865 2°58.002 15.0942 0.083322 0.428099 -2.458615
2012-04-05 07:34:59 51°20.875 2°58.025 15.1028 0.083219 0.427539 -2.458615
2012-04-05 07:35:04 51°20.883 2°58.044 15.0906 0.083322 0.42812 -2.458615
2012-04-05 07:35:09 51°20.891 2°58.063 15.1037 0.083322 0.428134 -2.458615
2012-04-05 07:35:13 51°20.897 2°58.078 15.0921 0.083322 0.428148 -2.458615
2012-04-05 07:35:19 51°20.908 2°58.1 15.1026 0.083322 0.428155 -2.458615
2012-04-05 07:35:24 51°20.916 2°58.119 15.0901 0.083322 0.428155 -2.458615
2012-04-05 07:35:29 51°20.924 2°58.137 15.1008 0.083219 0.427587 -2.458615
2012-04-05 07:35:33 51°20.931 2°58.152 15.094 0.083322 0.428141 -2.458615
2012-04-05 07:35:38 51°20.94 2°58.17 15.1054 0.083219 0.427587 -2.458615
2012-04-05 07:35:44 51°20.949 2°58.194 15.102 0.083219 0.427587 -2.458615
2012-04-05 07:35:49 51°20.957 2°58.214 15.1035 0.083219 0.42758 -2.458615
2012-04-05 07:35:53 51°20.963 2°58.229 15.1075 0.083219 0.42758 -2.458615
2012-04-05 07:35:58 51°20.971 2°58.249 15.1121 0.083219 0.427573 -2.458615
2012-04-05 07:36:04 51°20.98 2°58.272 15.1052 0.083322 0.428134 -2.458615
2012-04-05 07:36:09 51°20.989 2°58.291 15.1069 0.083219 0.427573 -2.458615
2012-04-05 07:36:13 51°20.995 2°58.306 15.1139 0.083322 0.428134 -2.458615
2012-04-05 07:36:19 51°21.005 2°58.329 15.1105 0.083219 0.427587 -2.458615
2012-04-05 07:36:24 51°21.013 2°58.348 15.1139 0.083219 0.427587 -2.458615
2012-04-05 07:36:29 51°21.021 2°58.367 15.1105 0.083219 0.427594 -2.458615
2012-04-05 07:36:33 51°21.028 2°58.381 15.1119 0.083219 0.427587 -2.458615
2012-04-05 07:36:39 51°21.038 2°58.403 15.1026 0.083322 0.428134 -2.458615
2012-04-05 07:36:44 51°21.047 2°58.421 15.1067 0.083219 0.427587 -2.458615
2012-04-05 07:36:49 51°21.056 2°58.439 15.1066 0.083219 0.427587 -2.458615
2012-04-05 07:36:53 51°21.064 2°58.453 15.1134 0.083219 0.427587 -2.458615
2012-04-05 07:36:59 51°21.074 2°58.475 15.1136 0.083219 0.427594 -2.458615
2012-04-05 07:37:04 51°21.083 2°58.492 15.1126 0.083219 0.427608 -2.458615
2012-04-05 07:37:09 51°21.092 2°58.511 15.1088 0.083322 0.428162 -2.458615
2012-04-05 07:37:13 51°21.099 2°58.524 15.1159 0.083219 0.427615 -2.458615
2012-04-05 07:37:19 51°21.11 2°58.546 15.117 0.083219 0.427622 -2.458615
2012-04-05 07:37:24 51°21.119 2°58.563 15.1164 0.083219 0.427622 -2.458615
2012-04-05 07:37:29 51°21.128 2°58.581 15.1122 0.083219 0.427629 -2.458615
2012-04-05 07:37:33 51°21.135 2°58.595 15.118 0.083219 0.427629 -2.458615
2012-04-05 07:37:39 51°21.147 2°58.617 15.1201 0.083219 0.427629 -2.458615
2012-04-05 07:37:44 51°21.156 2°58.635 15.1167 0.083219 0.427636 -2.458615
2012-04-05 07:37:49 51°21.165 2°58.651 15.1163 0.083219 0.427657 -2.458615
2012-04-05 07:37:53 51°21.171 2°58.664 15.1164 0.083219 0.427657 -2.458615
2012-04-05 07:37:58 51°21.179 2°58.679 15.1211 0.083219 0.42765 -2.458615
2012-04-05 07:38:04 51°21.188 2°58.697 15.1243 0.083219 0.427657 -2.458615
2012-04-05 07:38:09 51°21.195 2°58.711 15.1269 0.083219 0.427657 -2.458615
2012-04-05 07:38:13 51°21.199 2°58.722 15.1248 0.083219 0.427664 -2.458615
2012-04-05 07:38:19 51°21.206 2°58.738 15.1235 0.083219 0.427671 -2.458615
2012-04-05 07:38:24 51°21.211 2°58.751 15.1172 0.083219 0.427671 -2.458615
2012-04-05 07:38:29 51°21.218 2°58.763 15.128 0.083219 0.427684 -2.458615
2012-04-05 07:38:33 51°21.221 2°58.775 15.124 0.083219 0.427705 -2.458615
2012-04-05 07:38:39 51°21.226 2°58.789 15.1194 0.083219 0.427719 -2.458615
2012-04-05 07:38:44 51°21.231 2°58.8 15.127 0.083219 0.427726 -2.458615
2012-04-05 07:38:49 51°21.235 2°58.81 15.1273 0.083219 0.427712 -2.458615
2012-04-05 07:38:53 51°21.237 2°58.818 15.121 0.083219 0.427712 -2.458615
2012-04-05 07:38:59 51°21.241 2°58.829 15.1291 0.083219 0.427698 -2.458615
2012-04-05 07:39:04 51°21.244 2°58.837 15.1263 0.083219 0.427712 -2.458615
2012-04-05 07:39:09 51°21.246 2°58.844 15.1283 0.083219 0.427712 -2.458615
2012-04-05 07:39:13 51°21.248 2°58.85 15.1209 0.083219 0.427726 -2.458615
2012-04-05 07:39:19 51°21.251 2°58.857 15.1281 0.083219 0.427719 -2.458615
2012-04-05 07:39:24 51°21.252 2°58.864 15.1241 0.083219 0.427719 -2.458615
2012-04-05 07:39:29 51°21.254 2°58.87 15.1269 0.083219 0.427719 -2.458615
2012-04-05 07:39:33 51°21.256 2°58.874 15.1288 0.083219 0.427726 -2.458615
2012-04-05 07:39:39 51°21.258 2°58.881 15.1305 0.083219 0.427719 -2.458615
2012-04-05 07:39:44 51°21.259 2°58.886 15.1304 0.083219 0.427726 -2.458615
2012-04-05 07:39:49 51°21.261 2°58.891 15.1267 0.083219 0.427719 -2.458615
2012-04-05 07:39:53 51°21.262 2°58.894 15.1255 0.083219 0.427719 -2.458615
2012-04-05 07:39:59 51°21.264 2°58.899 15.1309 0.083219 0.427719 -2.458615
2012-04-05 07:40:04 51°21.266 2°58.903 15.1306 0.083219 0.427719 -2.458615
2012-04-05 07:40:09 51°21.268 2°58.906 15.129 0.083219 0.427726 -2.458615
2012-04-05 07:40:13 51°21.269 2°58.91 15.1218 0.083219 0.42774 -2.458615
2012-04-05 07:40:19 51°21.271 2°58.913 15.1282 0.083219 0.427761 -2.458615
2012-04-05 07:40:24 51°21.273 2°58.914 15.1269 0.083219 0.427761 -2.458615
2012-04-05 07:40:29 51°21.275 2°58.917 15.1229 0.083219 0.427775 -2.458615
2012-04-05 07:40:33 51°21.276 2°58.918 15.1232 0.083219 0.427775 -2.458615
2012-04-05 07:40:39 51°21.278 2°58.92 15.1235 0.083219 0.427754 -2.458615
2012-04-05 07:40:44 51°21.28 2°58.922 15.1013 0.083219 0.427747 -2.458615
2012-04-05 07:40:49 51°21.282 2°58.924 15.2378 0.083219 0.427733 -2.458615
2012-04-05 07:40:53 51°21.283 2°58.926 15.3994 0.083219 0.427733 -2.458615
2012-04-05 07:40:59 51°21.285 2°58.929 15.3924 0.083219 0.42774 -2.458615
2012-04-05 07:41:04 51°21.287 2°58.931 15.348 0.083219 0.427754 -2.458615
2012-04-05 07:41:09 51°21.289 2°58.936 15.2576 0.083219 0.427768 -2.458615
2012-04-05 07:41:13 51°21.291 2°58.938 15.2121 0.083219 0.427782 -2.458615
2012-04-05 07:41:19 51°21.293 2°58.944 15.1441 0.083116 0.427256 -2.458615
2012-04-05 07:41:24 51°21.295 2°58.949 15.1714 0.083116 0.427256 -2.458615
2012-04-05 07:41:29 51°21.297 2°58.954 15.2143 0.083116 0.427263 -2.458615
2012-04-05 07:41:33 51°21.299 2°58.958 15.2434 0.083219 0.427802 -2.458615
2012-04-05 07:41:39 51°21.301 2°58.965 15.313 0.083219 0.427802 -2.458615
2012-04-05 07:41:44 51°21.304 2°58.971 15.2311 0.083219 0.427816 -2.458615
2012-04-05 07:41:49 51°21.307 2°58.975 15.2242 0.083219 0.42783 -2.458615
2012-04-05 07:41:53 51°21.309 2°58.979 15.225 0.083219 0.42783 -2.458615
2012-04-05 07:41:59 51°21.313 2°58.984 15.2179 0.083219 0.427823 -2.458615
2012-04-05 07:42:04 51°21.317 2°58.988 15.2199 0.083219 0.427816 -2.458615
2012-04-05 07:42:09 51°21.32 2°58.991 15.2258 0.083219 0.427823 -2.458615
2012-04-05 07:42:13 51°21.323 2°58.993 15.3009 0.083219 0.427823 -2.458615
2012-04-05 07:42:18 51°21.327 2°58.996 15.4159 0.083219 0.42783 -2.458615
2012-04-05 07:42:24 51°21.331 2°58.999 15.4518 0.083219 0.42783 -2.458615
2012-04-05 07:42:29 51°21.334 2°59 15.4148 0.083219 0.427837 -2.458615
2012-04-05 07:42:33 51°21.336 2°59.001 15.4103 0.083219 0.427851 -2.458615
2012-04-05 07:42:38 51°21.338 2°59.002 15.3876 0.083219 0.427865 -2.458615
2012-04-05 07:42:44 51°21.34 2°59.002 15.3907 0.083219 0.427872 -2.458615
2012-04-05 07:42:49 51°21.342 2°59.003 15.3647 0.083219 0.427879 -2.458615
2012-04-05 07:42:53 51°21.342 2°59.003 15.3927 0.083219 0.427879 -2.458615
2012-04-05 07:42:59 51°21.344 2°59.003 15.3816 0.083219 0.427886 -2.458615
2012-04-05 07:43:03 51°21.344 2°59.003 15.351 0.083219 0.427893 -2.458615
2012-04-05 07:43:09 51°21.345 2°59.003 15.339 0.083219 0.427893 -2.458615
2012-04-05 07:43:13 51°21.345 2°59.003 15.3475 0.083219 0.427893 -2.458615
2012-04-05 07:43:19 51°21.346 2°59.002 15.3156 0.083219 0.427886 -2.458615
2012-04-05 07:43:24 51°21.346 2°59.002 15.3295 0.083219 0.427886 -2.458615
2012-04-05 07:43:29 51°21.346 2°59.001 15.311 0.083219 0.427879 -2.458615
2012-04-05 07:43:33 51°21.346 2°59.001 15.3453 0.083116 0.427325 -2.458615
2012-04-05 07:43:39 51°21.346 2°59 15.3199 0.083219 0.427872 -2.458615
2012-04-05 07:43:44 51°21.345 2°58.999 15.3037 0.083219 0.427872 -2.458615
2012-04-05 07:43:49 51°21.345 2°58.997 15.3568 0.083219 0.427858 -2.458615
2012-04-05 07:43:53 51°21.344 2°58.998 15.3547 0.083219 0.427858 -2.458615
2012-04-05 07:43:59 51°21.343 2°58.997 15.3285 0.083116 0.427311 -2.458615
2012-04-05 07:44:04 51°21.343 2°58.995 15.3192 0.083116 0.427318 -2.458615
2012-04-05 07:44:09 51°21.342 2°58.994 15.3325 0.083116 0.427325 -2.458615
2012-04-05 07:44:13 51°21.341 2°58.994 15.3518 0.083116 0.427339 -2.458615
2012-04-05 07:44:19 51°21.34 2°58.992 15.3357 0.083219 0.427907 -2.458615
2012-04-05 07:44:24 51°21.339 2°58.991 15.3907 0.083219 0.427907 -2.458615
2012-04-05 07:44:29 51°21.338 2°58.99 15.3488 0.083219 0.427914 -2.458615
2012-04-05 07:44:33 51°21.337 2°58.988 15.3805 0.083116 0.427394 -2.458615
2012-04-05 07:44:39 51°21.336 2°58.988 15.3953 0.083116 0.427401 -2.458615
2012-04-05 07:44:44 51°21.334 2°58.987 15.3548 0.083219 0.427955 -2.458615
2012-04-05 07:44:49 51°21.333 2°58.985 15.3631 0.083219 0.427962 -2.458615
2012-04-05 07:44:53 51°21.332 2°58.984 15.3737 0.083219 0.427962 -2.458615
2012-04-05 07:44:58 51°21.33 2°58.983 15.3577 0.083219 0.427948 -2.458615
2012-04-05 07:45:04 51°21.328 2°58.983 15.353 0.083116 0.427401 -2.458615
2012-04-05 07:45:09 51°21.327 2°58.981 15.3747 0.083116 0.427387 -2.458615
2012-04-05 07:45:13 51°21.326 2°58.98 15.3635 0.083219 0.427934 -2.458615
2012-04-05 07:45:19 51°21.325 2°58.979 15.3407 0.083219 0.427934 -2.458615
2012-04-05 07:45:23 51°21.323 2°58.979 15.3765 0.083219 0.427934 -2.458615
2012-04-05 07:45:29 51°21.321 2°58.978 15.3345 0.083116 0.427394 -2.458615
2012-04-05 07:45:35 51°21.319 2°58.978 15.3345 0.083116 0.427408 -2.458615
2012-04-05 07:45:40 51°21.318 2°58.978 15.3718 0.083116 0.427408 -2.458615
2012-04-05 07:45:45 51°21.315 2°58.979 15.3552 0.083116 0.427415 -2.458615
2012-04-05 07:45:50 51°21.314 2°58.98 15.2889 0.083219 0.427962 -2.458615
2012-04-05 07:45:56 51°21.312 2°58.985 15.2896 0.083219 0.427962 -2.458615
2012-04-05 07:46:01 51°21.312 2°58.99 15.2901 0.083116 0.427422 -2.458615
2012-04-05 07:46:05 51°21.312 2°58.994 15.2838 0.083219 0.427983 -2.458615
2012-04-05 07:46:10 51°21.312 2°59 15.2921 0.083116 0.427443 -2.458615
2012-04-05 07:46:16 51°21.314 2°59.007 15.3032 0.083116 0.42745 -2.458615
2012-04-05 07:46:21 51°21.317 2°59.013 15.3072 0.083116 0.427464 -2.458615
2012-04-05 07:46:25 51°21.32 2°59.018 15.3175 0.083116 0.427464 -2.458615
2012-04-05 07:46:30 51°21.324 2°59.024 15.3054 0.083116 0.427471 -2.458615
2012-04-05 07:46:36 51°21.329 2°59.029 15.3243 0.083116 0.427485 -2.458615
2012-04-05 07:46:41 51°21.335 2°59.032 15.4309 0.083219 0.428018 -2.458615
2012-04-05 07:46:45 51°21.34 2°59.036 15.4696 0.083219 0.428011 -2.458615
2012-04-05 07:46:50 51°21.347 2°59.04 15.4956 0.083116 0.427457 -2.458615
2012-04-05 07:46:56 51°21.356 2°59.044 15.4973 0.083116 0.427457 -2.458615
2012-04-05 07:47:01 51°21.363 2°59.048 15.4854 0.083116 0.42745 -2.458615
2012-04-05 07:47:05 51°21.369 2°59.052 15.4723 0.083116 0.42745 -2.458615
2012-04-05 07:47:10 51°21.377 2°59.057 15.4634 0.083116 0.427457 -2.458615
2012-04-05 07:47:16 51°21.386 2°59.064 15.471 0.083116 0.42745 -2.458615
2012-04-05 07:47:21 51°21.394 2°59.07 15.4723 0.083116 0.427464 -2.458615
2012-04-05 07:47:25 51°21.401 2°59.075 15.4584 0.083116 0.427464 -2.458615
2012-04-05 07:47:30 51°21.408 2°59.082 15.4549 0.083116 0.427485 -2.458615
2012-04-05 07:47:35 51°21.416 2°59.089 15.4588 0.083116 0.427492 -2.458615
2012-04-05 07:47:41 51°21.426 2°59.098 15.4539 0.083116 0.427492 -2.458615
2012-04-05 07:47:45 51°21.433 2°59.104 15.4562 0.083116 0.427478 -2.458615
2012-04-05 07:47:50 51°21.441 2°59.112 15.4634 0.083116 0.427478 -2.458615
2012-04-05 07:47:55 51°21.45 2°59.119 15.4589 0.083116 0.427478 -2.458615
2012-04-05 07:48:01 51°21.46 2°59.128 15.4571 0.083116 0.427485 -2.458615
2012-04-05 07:48:05 51°21.467 2°59.135 15.4606 0.083116 0.427492 -2.458615
2012-04-05 07:48:10 51°21.476 2°59.143 15.4565 0.083116 0.427505 -2.458615
2012-04-05 07:48:16 51°21.488 2°59.152 15.4612 0.083116 0.427512 -2.458615
2012-04-05 07:48:21 51°21.497 2°59.16 15.4583 0.083116 0.427533 -2.458615
2012-04-05 07:48:25 51°21.505 2°59.167 15.4636 0.083116 0.427533 -2.458615
2012-04-05 07:48:30 51°21.514 2°59.174 15.462 0.083116 0.42754 -2.458615
2012-04-05 07:48:35 51°21.524 2°59.183 15.4671 0.083116 0.427547 -2.458615
2012-04-05 07:48:41 51°21.536 2°59.192 15.4676 0.083116 0.42754 -2.458615
2012-04-05 07:48:45 51°21.543 2°59.199 15.4872 0.083116 0.427533 -2.458615
2012-04-05 07:48:50 51°21.553 2°59.206 15.4708 0.083116 0.427533 -2.458615
2012-04-05 07:48:55 51°21.563 2°59.214 15.4867 0.083116 0.427533 -2.458615
2012-04-05 07:49:00 51°21.572 2°59.223 15.4822 0.083116 0.427526 -2.458615
2012-04-05 07:49:05 51°21.582 2°59.231 15.4745 0.083116 0.42754 -2.458615
2012-04-05 07:49:10 51°21.591 2°59.239 15.4774 0.083116 0.427554 -2.458615
2012-04-05 07:49:15 51°21.6 2°59.247 15.4791 0.083116 0.427547 -2.458615
2012-04-05 07:49:20 51°21.61 2°59.255 15.4772 0.083116 0.427533 -2.458615
2012-04-05 07:49:25 51°21.619 2°59.263 15.4824 0.083116 0.427533 -2.458615
2012-04-05 07:49:30 51°21.628 2°59.27 15.4855 0.083116 0.427519 -2.458615
2012-04-05 07:49:35 51°21.638 2°59.278 15.4837 0.083116 0.427512 -2.458615
2012-04-05 07:49:40 51°21.647 2°59.287 15.4843 0.083116 0.427519 -2.458615
2012-04-05 07:49:45 51°21.656 2°59.294 15.4861 0.083116 0.427526 -2.458615
2012-04-05 07:49:50 51°21.666 2°59.302 15.4884 0.083116 0.427533 -2.458615
2012-04-05 07:49:55 51°21.675 2°59.31 15.4874 0.083116 0.427533 -2.458615
2012-04-05 07:50:00 51°21.685 2°59.319 15.4963 0.083116 0.427554 -2.458615
2012-04-05 07:50:05 51°21.694 2°59.328 15.4914 0.083116 0.427561 -2.458615
2012-04-05 07:50:10 51°21.704 2°59.337 15.4911 0.083116 0.427596 -2.458615
2012-04-05 07:50:15 51°21.713 2°59.346 15.4919 0.083116 0.427596 -2.458615
2012-04-05 07:50:20 51°21.722 2°59.355 15.4909 0.083116 0.427596 -2.458615
2012-04-05 07:50:25 51°21.731 2°59.363 15.4954 0.083116 0.427596 -2.458615
2012-04-05 07:50:30 51°21.741 2°59.372 15.4954 0.083116 0.427596 -2.458615
2012-04-05 07:50:35 51°21.75 2°59.381 15.4984 0.083116 0.427589 -2.458615
2012-04-05 07:50:40 51°21.759 2°59.39 15.4967 0.083116 0.427589 -2.458615
2012-04-05 07:50:45 51°21.769 2°59.399 15.4942 0.083116 0.427589 -2.458615
2012-04-05 07:50:50 51°21.778 2°59.408 15.4966 0.083116 0.427589 -2.458615
2012-04-05 07:50:55 51°21.787 2°59.417 15.5056 0.083116 0.427589 -2.458615
2012-04-05 07:51:00 51°21.796 2°59.427 15.4989 0.083116 0.427596 -2.458615
2012-04-05 07:51:05 51°21.805 2°59.436 15.4994 0.083116 0.427617 -2.458615
2012-04-05 07:51:10 51°21.814 2°59.445 15.5007 0.083116 0.427623 -2.458615
2012-04-05 07:51:15 51°21.823 2°59.454 15.5009 0.083116 0.427623 -2.458615
2012-04-05 07:51:20 51°21.833 2°59.463 15.5006 0.083116 0.42763 -2.458615
2012-04-05 07:51:25 51°21.842 2°59.472 15.5015 0.083116 0.42763 -2.458615
2012-04-05 07:51:30 51°21.851 2°59.481 15.5037 0.083116 0.427637 -2.458615
2012-04-05 07:51:35 51°21.86 2°59.49 15.5054 0.083116 0.427623 -2.458615
2012-04-05 07:51:40 51°21.87 2°59.498 15.5052 0.083116 0.427617 -2.458615
2012-04-05 07:51:45 51°21.878 2°59.506 15.5115 0.083116 0.427617 -2.458615
2012-04-05 07:51:50 51°21.888 2°59.514 15.508 0.083116 0.42761 -2.458615
2012-04-05 07:51:55 51°21.897 2°59.522 15.5092 0.083116 0.42761 -2.458615
2012-04-05 07:52:00 51°21.906 2°59.529 15.5141 0.083116 0.42761 -2.458615
2012-04-05 07:52:05 51°21.915 2°59.537 15.5134 0.083116 0.427617 -2.458615
2012-04-05 07:52:10 51°21.925 2°59.543 15.5108 0.083116 0.427623 -2.458615
2012-04-05 07:52:15 51°21.934 2°59.55 15.5275 0.083116 0.427644 -2.458615
2012-04-05 07:52:20 51°21.943 2°59.557 15.5168 0.083116 0.427665 -2.458615
2012-04-05 07:52:25 51°21.952 2°59.562 15.5199 0.083116 0.427665 -2.458615
2012-04-05 07:52:30 51°21.959 2°59.568 15.5181 0.083116 0.427672 -2.458615
2012-04-05 07:52:35 51°21.965 2°59.572 15.5233 0.083116 0.427679 -2.458615
2012-04-05 07:52:40 51°21.971 2°59.577 15.5188 0.083116 0.427686 -2.458615
2012-04-05 07:52:45 51°21.977 2°59.58 15.5191 0.083116 0.427679 -2.458615
2012-04-05 07:52:49 51°21.981 2°59.583 15.5188 0.083116 0.427686 -2.458615
2012-04-05 07:52:55 51°21.986 2°59.585 15.5175 0.083116 0.427686 -2.458615
2012-04-05 07:53:00 51°21.991 2°59.588 15.5247 0.083116 0.427693 -2.458615
2012-04-05 07:53:05 51°21.995 2°59.59 15.5229 0.083116 0.427707 -2.458615
2012-04-05 07:53:09 51°21.997 2°59.592 15.5256 0.083116 0.427721 -2.458615
2012-04-05 07:53:15 51°22.001 2°59.593 15.5208 0.083116 0.427721 -2.458615
2012-04-05 07:53:20 51°22.003 2°59.593 15.5179 0.083116 0.427721 -2.458615
2012-04-05 07:53:25 51°22.005 2°59.594 15.5169 0.083116 0.427721 -2.458615
2012-04-05 07:53:29 51°22.007 2°59.594 15.5164 0.083116 0.427728 -2.458615
2012-04-05 07:53:35 51°22.009 2°59.594 15.5176 0.083116 0.427721 -2.458615
2012-04-05 07:53:40 51°22.01 2°59.594 15.5218 0.083116 0.427721 -2.458615
2012-04-05 07:53:45 51°22.011 2°59.594 15.5223 0.083116 0.427714 -2.458615
2012-04-05 07:53:49 51°22.011 2°59.593 15.5201 0.083116 0.427721 -2.458615
2012-04-05 07:53:55 51°22.012 2°59.593 15.5195 0.083116 0.427721 -2.458615
2012-04-05 07:54:00 51°22.012 2°59.592 15.5214 0.083116 0.427728 -2.458615
2012-04-05 07:54:05 51°22.013 2°59.592 15.5179 0.083116 0.427735 -2.458615
2012-04-05 07:54:09 51°22.013 2°59.592 15.5179 0.083116 0.427742 -2.458615
2012-04-05 07:54:15 51°22.013 2°59.591 15.5178 0.083116 0.427749 -2.458615
2012-04-05 07:54:20 51°22.013 2°59.59 15.5196 0.083116 0.427749 -2.458615
2012-04-05 07:54:25 51°22.013 2°59.589 15.5229 0.083116 0.427749 -2.458615
2012-04-05 07:54:29 51°22.013 2°59.589 15.5181 0.083116 0.427763 -2.458615
2012-04-05 07:54:34 51°22.013 2°59.588 15.5164 0.083013 0.427215 -2.458615
2012-04-05 07:54:40 51°22.012 2°59.587 15.5208 0.083116 0.427763 -2.458615
2012-04-05 07:54:45 51°22.012 2°59.585 15.5235 0.083116 0.427769 -2.458615
2012-04-05 07:54:49 51°22.011 2°59.585 15.5164 0.083116 0.427776 -2.458615
2012-04-05 07:54:54 51°22.011 2°59.583 15.5188 0.083116 0.427776 -2.458615
2012-04-05 07:55:00 51°22.01 2°59.582 15.5201 0.083116 0.427776 -2.458615
2012-04-05 07:55:05 51°22.009 2°59.58 15.5272 0.083116 0.427783 -2.458615
2012-04-05 07:55:09 51°22.008 2°59.58 15.5197 0.083116 0.427783 -2.458615
2012-04-05 07:55:15 51°22.008 2°59.578 15.52 0.083116 0.427776 -2.458615
2012-04-05 07:55:20 51°22.007 2°59.577 15.5254 0.083013 0.427229 -2.458615
2012-04-05 07:55:25 51°22.006 2°59.576 15.5197 0.083013 0.427229 -2.458615
2012-04-05 07:55:29 51°22.006 2°59.574 15.5306 0.083116 0.42779 -2.458615
2012-04-05 07:55:34 51°22.005 2°59.573 15.5288 0.083116 0.427811 -2.458615
2012-04-05 07:55:40 51°22.004 2°59.571 15.5161 0.083116 0.427818 -2.458615
2012-04-05 07:55:45 51°22.003 2°59.569 15.5203 0.083116 0.427818 -2.458615
2012-04-05 07:55:49 51°22.003 2°59.567 15.5279 0.083013 0.427271 -2.458615
2012-04-05 07:55:54 51°22.002 2°59.566 15.5309 0.083013 0.427271 -2.458615
2012-04-05 07:56:00 51°22.001 2°59.564 15.5238 0.083013 0.427278 -2.458615
2012-04-05 07:56:05 51°22 2°59.563 15.5018 0.083116 0.427818 -2.458615
2012-04-05 07:56:09 51°22 2°59.562 15.4779 0.083013 0.42725 -2.458615
2012-04-05 07:56:14 51°22 2°59.562 15.4809 0.083013 0.427257 -2.458615
2012-04-05 07:56:19 51°22.002 2°59.564 15.4767 0.083116 0.427804 -2.458615
2012-04-05 07:56:25 51°22.005 2°59.567 15.4988 0.083116 0.427804 -2.458615
2012-04-05 07:56:29 51°22.008 2°59.569 15.5053 0.083013 0.427271 -2.458615
2012-04-05 07:56:34 51°22.012 2°59.573 15.5128 0.083013 0.427292 -2.458615
2012-04-05 07:56:39 51°22.017 2°59.578 15.5057 0.083013 0.427305 -2.458615
2012-04-05 07:56:44 51°22.023 2°59.581 15.4506 0.083116 0.427867 -2.458615
2012-04-05 07:56:49 51°22.03 2°59.583 15.4315 0.083116 0.427888 -2.458615
2012-04-05 07:56:54 51°22.037 2°59.582 15.4764 0.083116 0.427888 -2.458615
2012-04-05 07:56:59 51°22.045 2°59.58 15.5164 0.083116 0.427902 -2.458615
2012-04-05 07:57:04 51°22.053 2°59.575 15.5387 0.083013 0.427361 -2.458615
2012-04-05 07:57:09 51°22.062 2°59.571 15.54 0.083013 0.427347 -2.458615
2012-04-05 07:57:14 51°22.071 2°59.567 15.537 0.083013 0.427326 -2.458615
2012-04-05 07:57:19 51°22.081 2°59.563 15.535 0.083013 0.427312 -2.458615